AIC144 KEWR-VABB
Flight info
| Callsign | AIC144 |
|---|---|
| Flight time | 14h 21m |
| Altitude | 29000 |
| Route | MERIT DCT HFD DCT PUT DCT BRADD DCT NANSO/N0502F310 DCT SUPRY/M085F310 DCT 46N050W 47N040W 48N030W 46N020W DCT KOPAS/N0494F330 DCT STG DCT SUSOS/N0489F340 N725 DGO/N0489F330 DCT VASUM/N0487F340 N725 OSPOK/N0489F330 DCT NOLVI DCT ORKUM/N0486F340 DCT ELSAG DCT ALG/N0489F330 DCT VAKOR/N0483F350 DCT BELIX DCT PLH DCT PAXIS L607 NABSI P557 OBRAN L321 REXUM M872 PMA Y214 KUPMI/N0493F370 Y214 RAPMA DCT MEVDO DCT ALROK DCT DEBIN DCT MIDGU M440 TULBU N881 AMBOS M700 PARAR N571 SUGID KETOR2A |
| Aircraft | B77W/H-SDE1E2E3FGHIJ2J3J4J5M1RWXY/LB1D1 |
Departure
| Time | 2026-05-03 21:42 |
|---|---|
| Airport | Newark Liberty International Airport (KEWR) |
Arrival
| Time | 2026-05-04 12:04 |
|---|---|
| Airport | Chhatrapati Shivaji Maharaj International Airport (VABB) |
| Time | Latitude | Longitude | Altitude | Speed | Heading |
|---|---|---|---|---|---|
| 2026-05-03 20:53 | 40.69277 | -74.17459 | 22 ft | 0 kts | 186° |
| 2026-05-03 21:33 | 40.69282 | -74.17459 | 23 ft | 2 kts | 186° |
| 2026-05-03 21:33 | 40.69299 | -74.17456 | 24 ft | 2 kts | 186° |
| 2026-05-03 21:33 | 40.69316 | -74.17453 | 23 ft | 3 kts | 161° |
| 2026-05-03 21:34 | 40.69327 | -74.17468 | 26 ft | 2 kts | 84° |
| 2026-05-03 21:34 | 40.69323 | -74.17483 | 27 ft | 0 kts | 59° |
| 2026-05-03 21:36 | 40.69323 | -74.17482 | 27 ft | 1 kts | 59° |
| 2026-05-03 21:37 | 40.69327 | -74.17449 | 27 ft | 8 kts | 92° |
| 2026-05-03 21:37 | 40.69314 | -74.17332 | 24 ft | 18 kts | 102° |
| 2026-05-03 21:37 | 40.69272 | -74.17228 | 25 ft | 0 kts | 121° |
| 2026-05-03 21:38 | 40.69249 | -74.17170 | 24 ft | 15 kts | 117° |
| 2026-05-03 21:38 | 40.69235 | -74.17058 | 24 ft | 12 kts | 58° |
| 2026-05-03 21:38 | 40.69324 | -74.16975 | 29 ft | 24 kts | 30° |
| 2026-05-03 21:38 | 40.69485 | -74.16866 | 31 ft | 26 kts | 27° |
| 2026-05-03 21:39 | 40.69644 | -74.16760 | 28 ft | 26 kts | 27° |
| 2026-05-03 21:39 | 40.69812 | -74.16664 | 21 ft | 26 kts | 23° |
| 2026-05-03 21:39 | 40.69970 | -74.16558 | 21 ft | 26 kts | 27° |
| 2026-05-03 21:39 | 40.70135 | -74.16475 | 23 ft | 21 kts | 7° |
| 2026-05-03 21:40 | 40.70225 | -74.16461 | 25 ft | 12 kts | 8° |
| 2026-05-03 21:40 | 40.70274 | -74.16374 | 26 ft | 13 kts | 68° |
| 2026-05-03 21:40 | 40.70312 | -74.16272 | 26 ft | 12 kts | 79° |
| 2026-05-03 21:40 | 40.70263 | -74.16215 | 26 ft | 11 kts | 200° |
| 2026-05-03 21:41 | 40.70244 | -74.16228 | 24 ft | 1 kts | 207° |
| 2026-05-03 21:41 | 40.70242 | -74.16230 | 24 ft | 0 kts | 207° |
| 2026-05-03 21:41 | 40.70240 | -74.16231 | 25 ft | 4 kts | 207° |
| 2026-05-03 21:41 | 40.69994 | -74.16390 | 18 ft | 81 kts | 206° |
| 2026-05-03 21:42 | 40.69249 | -74.16874 | 26 ft | 158 kts | 206° |
| 2026-05-03 21:42 | 40.68051 | -74.17637 | 117 ft | 215 kts | 208° |
| 2026-05-03 21:42 | 40.66639 | -74.18469 | 765 ft | 234 kts | 211° |
| 2026-05-03 21:42 | 40.65126 | -74.19435 | 1804 ft | 237 kts | 208° |
| 2026-05-03 21:43 | 40.63567 | -74.20241 | 2379 ft | 251 kts | 206° |
| 2026-05-03 21:43 | 40.61966 | -74.21028 | 2604 ft | 249 kts | 206° |
| 2026-05-03 21:43 | 40.60236 | -74.21882 | 2632 ft | 266 kts | 206° |
| 2026-05-03 21:43 | 40.58468 | -74.22562 | 3039 ft | 273 kts | 188° |
| 2026-05-03 21:44 | 40.56585 | -74.22083 | 3526 ft | 289 kts | 152° |
| 2026-05-03 21:44 | 40.55119 | -74.20238 | 4142 ft | 294 kts | 117° |
| 2026-05-03 21:44 | 40.54546 | -74.17745 | 4662 ft | 298 kts | 90° |
| 2026-05-03 21:44 | 40.54724 | -74.15101 | 5287 ft | 294 kts | 70° |
| 2026-05-03 21:45 | 40.55485 | -74.12671 | 5977 ft | 287 kts | 50° |
| 2026-05-03 21:45 | 40.56816 | -74.10769 | 6613 ft | 279 kts | 34° |
| 2026-05-03 21:45 | 40.58313 | -74.09085 | 7072 ft | 286 kts | 35° |
| 2026-05-03 21:45 | 40.59814 | -74.07366 | 7790 ft | 284 kts | 35° |
| 2026-05-03 21:46 | 40.61303 | -74.05653 | 8421 ft | 287 kts | 35° |
| 2026-05-03 21:46 | 40.62814 | -74.03904 | 9053 ft | 289 kts | 35° |
| 2026-05-03 21:46 | 40.64318 | -74.02156 | 9734 ft | 290 kts | 35° |
| 2026-05-03 21:46 | 40.65846 | -74.00375 | 10027 ft | 296 kts | 35° |
| 2026-05-03 21:47 | 40.67393 | -73.98564 | 9995 ft | 294 kts | 36° |
| 2026-05-03 21:47 | 40.68926 | -73.96758 | 10043 ft | 291 kts | 36° |
| 2026-05-03 21:47 | 40.70346 | -73.95088 | 10098 ft | 299 kts | 36° |
| 2026-05-03 21:47 | 40.71964 | -73.93191 | 10266 ft | 317 kts | 36° |
| 2026-05-03 21:48 | 40.73666 | -73.91192 | 10409 ft | 336 kts | 36° |
| 2026-05-03 21:48 | 40.75470 | -73.89066 | 10577 ft | 355 kts | 37° |
| 2026-05-03 21:48 | 40.77348 | -73.86843 | 11009 ft | 366 kts | 37° |
| 2026-05-03 21:48 | 40.79253 | -73.84579 | 11563 ft | 373 kts | 37° |
| 2026-05-03 21:49 | 40.81196 | -73.82267 | 12220 ft | 377 kts | 37° |
| 2026-05-03 21:49 | 40.83146 | -73.79943 | 12895 ft | 381 kts | 37° |
| 2026-05-03 21:49 | 40.85120 | -73.77592 | 13544 ft | 385 kts | 37° |
| 2026-05-03 21:49 | 40.87142 | -73.75183 | 14140 ft | 389 kts | 37° |
| 2026-05-03 21:50 | 40.89167 | -73.72769 | 14749 ft | 393 kts | 37° |
| 2026-05-03 21:50 | 40.91194 | -73.70351 | 15335 ft | 396 kts | 36° |
| 2026-05-03 21:50 | 40.93251 | -73.67895 | 15930 ft | 399 kts | 36° |
| 2026-05-03 21:50 | 40.95358 | -73.65380 | 16529 ft | 403 kts | 36° |
| 2026-05-03 21:51 | 40.97426 | -73.62908 | 17100 ft | 407 kts | 36° |
| 2026-05-03 21:51 | 40.98844 | -73.61211 | 17495 ft | 409 kts | 36° |
| 2026-05-03 21:51 | 41.00939 | -73.58703 | 18089 ft | 412 kts | 36° |
| 2026-05-03 21:51 | 41.03075 | -73.56143 | 18607 ft | 416 kts | 36° |
| 2026-05-03 21:52 | 41.05954 | -73.52690 | 19260 ft | 420 kts | 36° |
| 2026-05-03 21:52 | 41.07405 | -73.50947 | 19602 ft | 423 kts | 36° |
| 2026-05-03 21:52 | 41.09597 | -73.48313 | 20099 ft | 426 kts | 36° |
| 2026-05-03 21:52 | 41.11818 | -73.45641 | 20594 ft | 429 kts | 36° |
| 2026-05-03 21:53 | 41.14072 | -73.42927 | 21070 ft | 432 kts | 36° |
| 2026-05-03 21:53 | 41.16306 | -73.40234 | 21560 ft | 436 kts | 36° |
| 2026-05-03 21:53 | 41.18543 | -73.37536 | 22030 ft | 439 kts | 36° |
| 2026-05-03 21:53 | 41.20809 | -73.34799 | 22507 ft | 441 kts | 36° |
| 2026-05-03 21:54 | 41.23071 | -73.32065 | 22964 ft | 445 kts | 36° |
| 2026-05-03 21:54 | 41.25364 | -73.29290 | 23425 ft | 448 kts | 36° |
| 2026-05-03 21:54 | 41.27698 | -73.26462 | 23810 ft | 451 kts | 36° |
| 2026-05-03 21:54 | 41.29984 | -73.23689 | 24168 ft | 454 kts | 36° |
| 2026-05-03 21:55 | 41.32336 | -73.20835 | 24528 ft | 457 kts | 37° |
| 2026-05-03 21:55 | 41.34721 | -73.17938 | 24880 ft | 459 kts | 37° |
| 2026-05-03 21:55 | 41.37017 | -73.14965 | 25208 ft | 467 kts | 42° |
| 2026-05-03 21:55 | 41.39111 | -73.11577 | 25525 ft | 474 kts | 49° |
| 2026-05-03 21:56 | 41.40916 | -73.07864 | 25863 ft | 482 kts | 55° |
| 2026-05-03 21:56 | 41.42569 | -73.03980 | 26195 ft | 485 kts | 56° |
| 2026-05-03 21:56 | 41.44249 | -73.00077 | 26512 ft | 488 kts | 55° |
| 2026-05-03 21:56 | 41.45970 | -72.96127 | 26807 ft | 491 kts | 55° |
| 2026-05-03 21:57 | 41.47708 | -72.92169 | 27115 ft | 494 kts | 55° |
| 2026-05-03 21:57 | 41.49458 | -72.88192 | 27419 ft | 496 kts | 55° |
| 2026-05-03 21:57 | 41.51225 | -72.84174 | 27715 ft | 499 kts | 55° |
| 2026-05-03 21:57 | 41.52980 | -72.80177 | 28002 ft | 502 kts | 55° |
| 2026-05-03 21:58 | 41.54739 | -72.76165 | 28268 ft | 505 kts | 56° |
| 2026-05-03 21:58 | 41.56499 | -72.72144 | 28527 ft | 508 kts | 56° |
| 2026-05-03 21:58 | 41.58313 | -72.67992 | 28766 ft | 510 kts | 56° |
| 2026-05-03 21:58 | 41.60103 | -72.63888 | 28837 ft | 513 kts | 56° |
| 2026-05-03 21:59 | 41.63720 | -72.55583 | 28889 ft | 520 kts | 56° |
| 2026-05-03 21:59 | 41.67436 | -72.47216 | 28895 ft | 526 kts | 55° |
| 2026-05-03 22:00 | 41.71262 | -72.38784 | 28894 ft | 532 kts | 55° |
| 2026-05-03 22:00 | 41.75103 | -72.30268 | 28900 ft | 535 kts | 56° |
| 2026-05-03 22:01 | 41.78953 | -72.21667 | 28889 ft | 535 kts | 56° |
| 2026-05-03 22:01 | 41.82782 | -72.13080 | 28903 ft | 537 kts | 56° |
| 2026-05-03 22:02 | 41.86616 | -72.04464 | 28877 ft | 536 kts | 56° |
| 2026-05-03 22:02 | 41.90432 | -71.95862 | 28871 ft | 537 kts | 56° |
| 2026-05-03 22:03 | 41.94229 | -71.87268 | 28860 ft | 538 kts | 57° |
| 2026-05-03 22:03 | 41.97385 | -71.78008 | 28858 ft | 542 kts | 68° |
| 2026-05-03 22:04 | 41.99850 | -71.68511 | 28909 ft | 542 kts | 68° |
| 2026-05-03 22:04 | 42.02399 | -71.58933 | 28862 ft | 540 kts | 68° |
| 2026-05-03 22:05 | 42.04956 | -71.49443 | 28854 ft | 542 kts | 68° |
| 2026-05-03 22:05 | 42.07531 | -71.39877 | 28844 ft | 543 kts | 68° |
| 2026-05-03 22:06 | 42.10125 | -71.30194 | 28834 ft | 544 kts | 68° |
| 2026-05-03 22:06 | 42.12553 | -71.21078 | 28855 ft | 546 kts | 68° |
| 2026-05-03 22:07 | 42.15091 | -71.11510 | 28856 ft | 546 kts | 68° |
| 2026-05-03 22:07 | 42.17238 | -71.03385 | 28836 ft | 547 kts | 68° |
| 2026-05-03 22:08 | 42.19782 | -70.93725 | 28812 ft | 548 kts | 69° |
| 2026-05-03 22:08 | 42.22328 | -70.84021 | 28807 ft | 548 kts | 69° |
| 2026-05-03 22:09 | 42.24864 | -70.74317 | 28820 ft | 549 kts | 69° |
| 2026-05-03 22:10 | 42.28666 | -70.59693 | 28821 ft | 549 kts | 69° |
| 2026-05-03 22:10 | 42.31187 | -70.49947 | 28825 ft | 551 kts | 69° |
| 2026-05-03 22:10 | 42.32457 | -70.45019 | 29011 ft | 551 kts | 69° |
| 2026-05-03 22:11 | 42.33712 | -70.40141 | 29325 ft | 549 kts | 69° |
| 2026-05-03 22:11 | 42.34965 | -70.35264 | 29556 ft | 549 kts | 70° |
| 2026-05-03 22:11 | 42.36220 | -70.30364 | 29788 ft | 549 kts | 70° |
| 2026-05-03 22:11 | 42.37461 | -70.25511 | 30007 ft | 548 kts | 70° |
| 2026-05-03 22:12 | 42.38702 | -70.20648 | 30177 ft | 548 kts | 70° |
| 2026-05-03 22:12 | 42.41175 | -70.10932 | 30429 ft | 550 kts | 70° |
| 2026-05-03 22:12 | 42.42425 | -70.06003 | 30610 ft | 549 kts | 70° |
| 2026-05-03 22:13 | 42.43678 | -70.01052 | 30719 ft | 549 kts | 70° |
| 2026-05-03 22:13 | 42.46146 | -69.91271 | 30787 ft | 550 kts | 70° |
| 2026-05-03 22:14 | 42.48618 | -69.81434 | 30786 ft | 551 kts | 70° |
| 2026-05-03 22:14 | 42.51082 | -69.71587 | 30791 ft | 552 kts | 71° |
| 2026-05-03 22:15 | 42.53541 | -69.61715 | 30762 ft | 551 kts | 71° |
| 2026-05-03 22:15 | 42.55575 | -69.53522 | 30781 ft | 552 kts | 71° |
| 2026-05-03 22:16 | 42.58023 | -69.43623 | 30780 ft | 553 kts | 71° |
| 2026-05-03 22:16 | 42.60465 | -69.33701 | 30774 ft | 553 kts | 71° |
| 2026-05-03 22:17 | 42.62893 | -69.23795 | 30772 ft | 554 kts | 71° |
| 2026-05-03 22:17 | 42.65320 | -69.13855 | 30761 ft | 554 kts | 71° |
| 2026-05-03 22:18 | 42.67740 | -69.03894 | 30759 ft | 555 kts | 71° |
| 2026-05-03 22:18 | 42.70152 | -68.93927 | 30757 ft | 556 kts | 71° |
| 2026-05-03 22:19 | 42.72562 | -68.83923 | 30753 ft | 557 kts | 72° |
| 2026-05-03 22:19 | 42.74962 | -68.73917 | 30744 ft | 558 kts | 72° |
| 2026-05-03 22:20 | 42.77385 | -68.63768 | 30741 ft | 559 kts | 72° |
| 2026-05-03 22:20 | 42.79783 | -68.53682 | 30726 ft | 560 kts | 72° |
| 2026-05-03 22:21 | 42.82154 | -68.43666 | 30729 ft | 561 kts | 72° |
| 2026-05-03 22:21 | 42.84546 | -68.33511 | 30716 ft | 562 kts | 72° |
| 2026-05-03 22:22 | 42.86927 | -68.23359 | 30711 ft | 563 kts | 72° |
| 2026-05-03 22:22 | 42.89305 | -68.13177 | 30712 ft | 564 kts | 72° |
| 2026-05-03 22:23 | 42.91684 | -68.02940 | 30691 ft | 564 kts | 72° |
| 2026-05-03 22:23 | 42.94047 | -67.92723 | 30698 ft | 564 kts | 72° |
| 2026-05-03 22:24 | 42.96399 | -67.82511 | 30694 ft | 565 kts | 73° |
| 2026-05-03 22:24 | 42.98758 | -67.72220 | 30681 ft | 566 kts | 73° |
| 2026-05-03 22:25 | 43.01100 | -67.61950 | 30687 ft | 567 kts | 73° |
| 2026-05-03 22:25 | 43.03435 | -67.51671 | 30679 ft | 567 kts | 73° |
| 2026-05-03 22:26 | 43.05770 | -67.41337 | 30676 ft | 567 kts | 73° |
| 2026-05-03 22:26 | 43.08094 | -67.31004 | 30667 ft | 568 kts | 73° |
| 2026-05-03 22:27 | 43.10405 | -67.20679 | 30655 ft | 569 kts | 73° |
| 2026-05-03 22:27 | 43.12714 | -67.10314 | 30646 ft | 569 kts | 73° |
| 2026-05-03 22:28 | 43.15010 | -66.99928 | 30647 ft | 569 kts | 75° |
| 2026-05-03 22:28 | 43.16905 | -66.89443 | 30630 ft | 568 kts | 78° |
| 2026-05-03 22:29 | 43.18688 | -66.78830 | 30619 ft | 569 kts | 78° |
| 2026-05-03 22:29 | 43.20467 | -66.68255 | 30607 ft | 570 kts | 78° |
| 2026-05-03 22:30 | 43.22271 | -66.57623 | 30598 ft | 570 kts | 78° |
| 2026-05-03 22:30 | 43.24066 | -66.47035 | 30578 ft | 570 kts | 78° |
| 2026-05-03 22:31 | 43.25845 | -66.36474 | 30579 ft | 570 kts | 78° |
| 2026-05-03 22:31 | 43.27617 | -66.25874 | 30572 ft | 571 kts | 78° |
| 2026-05-03 22:32 | 43.29395 | -66.15172 | 30539 ft | 572 kts | 78° |
| 2026-05-03 22:32 | 43.31153 | -66.04520 | 30542 ft | 573 kts | 78° |
| 2026-05-03 22:33 | 43.32905 | -65.93837 | 30523 ft | 573 kts | 78° |
| 2026-05-03 22:33 | 43.34643 | -65.83177 | 30505 ft | 573 kts | 78° |
| 2026-05-03 22:34 | 43.36392 | -65.72381 | 30500 ft | 575 kts | 78° |
| 2026-05-03 22:34 | 43.38111 | -65.61704 | 30484 ft | 577 kts | 78° |
| 2026-05-03 22:35 | 43.39833 | -65.50937 | 30473 ft | 577 kts | 78° |
| 2026-05-03 22:35 | 43.41556 | -65.40095 | 30453 ft | 577 kts | 78° |
| 2026-05-03 22:36 | 43.43256 | -65.29330 | 30432 ft | 578 kts | 78° |
| 2026-05-03 22:36 | 43.44947 | -65.18549 | 30421 ft | 580 kts | 79° |
| 2026-05-03 22:37 | 43.46634 | -65.07724 | 30374 ft | 581 kts | 79° |
| 2026-05-03 22:37 | 43.48323 | -64.96808 | 30374 ft | 582 kts | 79° |
| 2026-05-03 22:38 | 43.50003 | -64.85887 | 30342 ft | 583 kts | 79° |
| 2026-05-03 22:38 | 43.51673 | -64.74954 | 30327 ft | 583 kts | 79° |
| 2026-05-03 22:39 | 43.53331 | -64.64021 | 30297 ft | 583 kts | 79° |
| 2026-05-03 22:39 | 43.54976 | -64.53099 | 30284 ft | 585 kts | 79° |
| 2026-05-03 22:40 | 43.56623 | -64.42093 | 30266 ft | 586 kts | 79° |
| 2026-05-03 22:40 | 43.58259 | -64.31082 | 30260 ft | 587 kts | 79° |
| 2026-05-03 22:41 | 43.59887 | -64.20046 | 30244 ft | 588 kts | 79° |
| 2026-05-03 22:41 | 43.61506 | -64.08993 | 30252 ft | 588 kts | 79° |
| 2026-05-03 22:42 | 43.63126 | -63.97859 | 30230 ft | 589 kts | 79° |
| 2026-05-03 22:42 | 43.64725 | -63.86784 | 30212 ft | 590 kts | 80° |
| 2026-05-03 22:43 | 43.66321 | -63.75651 | 30176 ft | 591 kts | 80° |
| 2026-05-03 22:43 | 43.67904 | -63.64526 | 30143 ft | 592 kts | 80° |
| 2026-05-03 22:44 | 43.69478 | -63.53386 | 30104 ft | 593 kts | 80° |
| 2026-05-03 22:44 | 43.71058 | -63.42111 | 30099 ft | 594 kts | 80° |
| 2026-05-03 22:45 | 43.72618 | -63.30903 | 30057 ft | 595 kts | 80° |
| 2026-05-03 22:45 | 43.74168 | -63.19680 | 30047 ft | 596 kts | 80° |
| 2026-05-03 22:46 | 43.75458 | -63.10276 | 30041 ft | 596 kts | 80° |
| 2026-05-03 22:46 | 43.76995 | -62.98992 | 30035 ft | 597 kts | 80° |
| 2026-05-03 22:47 | 43.78520 | -62.87701 | 30042 ft | 598 kts | 80° |
| 2026-05-03 22:47 | 43.80038 | -62.76379 | 30043 ft | 598 kts | 80° |
| 2026-05-03 22:48 | 43.81547 | -62.65039 | 30053 ft | 599 kts | 81° |
| 2026-05-03 22:48 | 43.83049 | -62.53659 | 30055 ft | 599 kts | 81° |
| 2026-05-03 22:49 | 43.84535 | -62.42301 | 30074 ft | 600 kts | 81° |
| 2026-05-03 22:49 | 43.86012 | -62.30924 | 30092 ft | 600 kts | 81° |
| 2026-05-03 22:50 | 43.87482 | -62.19513 | 30099 ft | 601 kts | 81° |
| 2026-05-03 22:50 | 43.88933 | -62.08151 | 30104 ft | 602 kts | 81° |
| 2026-05-03 22:51 | 43.90390 | -61.96652 | 30125 ft | 603 kts | 81° |
| 2026-05-03 22:51 | 43.91828 | -61.85208 | 30131 ft | 604 kts | 81° |
| 2026-05-03 22:52 | 43.93260 | -61.73708 | 30150 ft | 603 kts | 81° |
| 2026-05-03 22:52 | 43.94676 | -61.62243 | 30160 ft | 603 kts | 81° |
| 2026-05-03 22:53 | 43.96084 | -61.50739 | 30181 ft | 604 kts | 81° |
| 2026-05-03 22:53 | 43.97477 | -61.39263 | 30187 ft | 604 kts | 81° |
| 2026-05-03 22:54 | 43.98867 | -61.27708 | 30203 ft | 604 kts | 81° |
| 2026-05-03 22:54 | 44.00234 | -61.16247 | 30212 ft | 603 kts | 80° |
| 2026-05-03 22:55 | 44.01595 | -61.04729 | 30225 ft | 603 kts | 80° |
| 2026-05-03 22:55 | 44.02946 | -60.93198 | 30228 ft | 603 kts | 80° |
| 2026-05-03 22:56 | 44.04279 | -60.81715 | 30242 ft | 603 kts | 80° |
| 2026-05-03 22:56 | 44.05602 | -60.70208 | 30239 ft | 603 kts | 80° |
| 2026-05-03 22:57 | 44.06912 | -60.58717 | 30254 ft | 602 kts | 80° |
| 2026-05-03 22:57 | 44.08218 | -60.47151 | 30263 ft | 603 kts | 80° |
| 2026-05-03 22:58 | 44.09503 | -60.35664 | 30275 ft | 603 kts | 80° |
| 2026-05-03 22:58 | 44.10775 | -60.24187 | 30277 ft | 602 kts | 80° |
| 2026-05-03 22:59 | 44.12047 | -60.12595 | 30296 ft | 602 kts | 80° |
| 2026-05-03 22:59 | 44.13290 | -60.01157 | 30305 ft | 602 kts | 80° |
| 2026-05-03 23:00 | 44.14538 | -59.89572 | 30310 ft | 603 kts | 80° |
| 2026-05-03 23:00 | 44.15769 | -59.78017 | 30315 ft | 603 kts | 80° |
| 2026-05-03 23:01 | 44.16987 | -59.66482 | 30329 ft | 604 kts | 80° |
| 2026-05-03 23:01 | 44.18200 | -59.54873 | 30337 ft | 605 kts | 80° |
| 2026-05-03 23:02 | 44.19400 | -59.43271 | 30340 ft | 605 kts | 80° |
| 2026-05-03 23:02 | 44.20593 | -59.31624 | 30347 ft | 606 kts | 80° |
| 2026-05-03 23:03 | 44.21771 | -59.19996 | 30358 ft | 607 kts | 80° |
| 2026-05-03 23:03 | 44.22947 | -59.08272 | 30368 ft | 608 kts | 80° |
| 2026-05-03 23:04 | 44.24090 | -58.96748 | 30377 ft | 608 kts | 80° |
| 2026-05-03 23:04 | 44.25271 | -58.85035 | 30399 ft | 606 kts | 79° |
| 2026-05-03 23:05 | 44.26393 | -58.73309 | 30400 ft | 609 kts | 80° |
| 2026-05-03 23:05 | 44.27530 | -58.61725 | 30740 ft | 586 kts | 90° |
| 2026-05-03 23:05 | 44.28080 | -58.56203 | 30939 ft | 565 kts | 91° |
| 2026-05-03 23:06 | 44.28588 | -58.50836 | 30623 ft | 556 kts | 91° |
| 2026-05-03 23:06 | 44.29554 | -58.40147 | 30493 ft | 559 kts | 91° |
| 2026-05-03 23:07 | 44.30530 | -58.29334 | 30426 ft | 561 kts | 91° |
| 2026-05-03 23:07 | 44.31411 | -58.18447 | 30425 ft | 555 kts | 97° |
| 2026-05-03 23:08 | 44.31695 | -58.07711 | 30451 ft | 556 kts | 95° |
| 2026-05-03 23:08 | 44.32290 | -57.96887 | 30450 ft | 559 kts | 94° |
| 2026-05-03 23:09 | 44.32918 | -57.86048 | 30455 ft | 560 kts | 94° |
| 2026-05-03 23:09 | 44.33609 | -57.75220 | 30463 ft | 564 kts | 89° |
| 2026-05-03 23:10 | 44.34471 | -57.64430 | 30485 ft | 557 kts | 95° |
| 2026-05-03 23:10 | 44.34814 | -57.53586 | 30493 ft | 558 kts | 96° |
| 2026-05-03 23:11 | 44.35075 | -57.42705 | 30498 ft | 560 kts | 96° |
| 2026-05-03 23:11 | 44.35714 | -57.31888 | 30480 ft | 571 kts | 79° |
| 2026-05-03 23:12 | 44.38732 | -57.21501 | 30512 ft | 581 kts | 73° |
| 2026-05-03 23:12 | 44.41406 | -57.10883 | 30538 ft | 579 kts | 78° |
| 2026-05-03 23:13 | 44.43929 | -57.00060 | 30537 ft | 580 kts | 77° |
| 2026-05-03 23:13 | 44.46451 | -56.89412 | 30540 ft | 578 kts | 77° |
| 2026-05-03 23:14 | 44.48975 | -56.78777 | 30554 ft | 577 kts | 77° |
| 2026-05-03 23:14 | 44.51507 | -56.68039 | 30580 ft | 577 kts | 77° |
| 2026-05-03 23:15 | 44.53996 | -56.57415 | 30583 ft | 576 kts | 77° |
| 2026-05-03 23:15 | 44.56488 | -56.46721 | 30596 ft | 575 kts | 77° |
| 2026-05-03 23:16 | 44.58547 | -56.37842 | 30600 ft | 575 kts | 77° |
| 2026-05-03 23:16 | 44.61413 | -56.25432 | 30607 ft | 573 kts | 77° |
| 2026-05-03 23:17 | 44.63457 | -56.16532 | 30619 ft | 573 kts | 77° |
| 2026-05-03 23:17 | 44.65901 | -56.05846 | 30637 ft | 573 kts | 77° |
| 2026-05-03 23:18 | 44.68316 | -55.95241 | 30640 ft | 572 kts | 77° |
| 2026-05-03 23:18 | 44.70733 | -55.84569 | 30655 ft | 571 kts | 77° |
| 2026-05-03 23:19 | 44.73135 | -55.73911 | 30681 ft | 571 kts | 77° |
| 2026-05-03 23:19 | 44.75522 | -55.63261 | 30674 ft | 573 kts | 77° |
| 2026-05-03 23:20 | 44.77923 | -55.52503 | 30699 ft | 574 kts | 77° |
| 2026-05-03 23:20 | 44.80295 | -55.41823 | 30709 ft | 575 kts | 77° |
| 2026-05-03 23:21 | 44.82689 | -55.30984 | 30719 ft | 575 kts | 77° |
| 2026-05-03 23:21 | 44.85056 | -55.20218 | 30724 ft | 575 kts | 77° |
| 2026-05-03 23:22 | 44.88571 | -55.04121 | 30735 ft | 575 kts | 77° |
| 2026-05-03 23:22 | 44.90910 | -54.93343 | 30750 ft | 575 kts | 77° |
| 2026-05-03 23:23 | 44.93239 | -54.82556 | 30756 ft | 574 kts | 76° |
| 2026-05-03 23:23 | 44.95558 | -54.71760 | 30762 ft | 572 kts | 76° |
| 2026-05-03 23:24 | 44.97852 | -54.61022 | 30772 ft | 571 kts | 76° |
| 2026-05-03 23:24 | 45.00142 | -54.50244 | 30785 ft | 570 kts | 76° |
| 2026-05-03 23:25 | 45.02408 | -54.39528 | 30785 ft | 570 kts | 76° |
| 2026-05-03 23:25 | 45.04658 | -54.28830 | 30796 ft | 569 kts | 77° |
| 2026-05-03 23:26 | 45.06911 | -54.18060 | 30800 ft | 569 kts | 77° |
| 2026-05-03 23:26 | 45.09134 | -54.07382 | 30812 ft | 569 kts | 77° |
| 2026-05-03 23:27 | 45.11373 | -53.96564 | 30815 ft | 569 kts | 77° |
| 2026-05-03 23:27 | 45.13582 | -53.85839 | 30821 ft | 568 kts | 77° |
| 2026-05-03 23:28 | 45.15789 | -53.75061 | 30828 ft | 569 kts | 77° |
| 2026-05-03 23:28 | 45.17984 | -53.64287 | 30837 ft | 570 kts | 77° |
| 2026-05-03 23:29 | 45.20186 | -53.53420 | 30843 ft | 571 kts | 76° |
| 2026-05-03 23:29 | 45.22360 | -53.42634 | 30848 ft | 571 kts | 76° |
| 2026-05-03 23:30 | 45.24526 | -53.31829 | 30851 ft | 569 kts | 76° |
| 2026-05-03 23:30 | 45.26680 | -53.21023 | 30858 ft | 569 kts | 76° |
| 2026-05-03 23:31 | 45.28824 | -53.10212 | 30863 ft | 569 kts | 76° |
| 2026-05-03 23:31 | 45.30951 | -52.99423 | 30869 ft | 568 kts | 76° |
| 2026-05-03 23:32 | 45.33069 | -52.88615 | 30872 ft | 567 kts | 76° |
| 2026-05-03 23:32 | 45.35183 | -52.77775 | 30877 ft | 567 kts | 76° |
| 2026-05-03 23:33 | 45.37280 | -52.66958 | 30876 ft | 567 kts | 77° |
| 2026-05-03 23:33 | 45.39362 | -52.56159 | 30881 ft | 566 kts | 77° |
| 2026-05-03 23:34 | 45.41426 | -52.45391 | 30892 ft | 566 kts | 77° |
| 2026-05-03 23:34 | 45.43497 | -52.34528 | 30896 ft | 566 kts | 77° |
| 2026-05-03 23:35 | 45.45551 | -52.23690 | 30907 ft | 566 kts | 77° |
| 2026-05-03 23:35 | 45.47579 | -52.12929 | 30913 ft | 566 kts | 77° |
| 2026-05-03 23:36 | 45.49611 | -52.02096 | 30917 ft | 566 kts | 76° |
| 2026-05-03 23:36 | 45.52045 | -51.91433 | 30913 ft | 567 kts | 70° |
| 2026-05-03 23:37 | 45.54858 | -51.80950 | 30936 ft | 566 kts | 70° |
| 2026-05-03 23:37 | 45.57690 | -51.70342 | 30926 ft | 566 kts | 70° |
| 2026-05-03 23:38 | 45.60417 | -51.59815 | 30925 ft | 566 kts | 70° |
| 2026-05-03 23:38 | 45.63094 | -51.49326 | 30946 ft | 565 kts | 70° |
| 2026-05-03 23:39 | 45.65781 | -51.38750 | 30948 ft | 565 kts | 70° |
| 2026-05-03 23:39 | 45.68462 | -51.28175 | 30937 ft | 565 kts | 70° |
| 2026-05-03 23:40 | 45.71131 | -51.17608 | 30953 ft | 564 kts | 70° |
| 2026-05-03 23:40 | 45.73785 | -51.07049 | 30958 ft | 565 kts | 70° |
| 2026-05-03 23:41 | 45.76435 | -50.96456 | 30956 ft | 565 kts | 71° |
| 2026-05-03 23:41 | 45.79077 | -50.85848 | 30953 ft | 564 kts | 71° |
| 2026-05-03 23:42 | 45.81714 | -50.75207 | 30965 ft | 564 kts | 71° |
| 2026-05-03 23:42 | 45.84326 | -50.64616 | 30967 ft | 565 kts | 71° |
| 2026-05-03 23:43 | 45.86938 | -50.53978 | 30970 ft | 565 kts | 71° |
| 2026-05-03 23:43 | 45.89524 | -50.43398 | 30977 ft | 565 kts | 71° |
| 2026-05-03 23:44 | 45.92116 | -50.32740 | 30982 ft | 565 kts | 71° |
| 2026-05-03 23:44 | 45.94700 | -50.22062 | 30983 ft | 566 kts | 71° |
| 2026-05-03 23:45 | 45.97268 | -50.11401 | 30983 ft | 566 kts | 71° |
| 2026-05-03 23:45 | 45.99826 | -50.00660 | 30983 ft | 567 kts | 72° |
| 2026-05-03 23:46 | 46.01623 | -49.89597 | 30989 ft | 567 kts | 79° |
| 2026-05-03 23:46 | 46.03147 | -49.78476 | 30984 ft | 567 kts | 79° |
| 2026-05-03 23:47 | 46.04713 | -49.67317 | 30998 ft | 568 kts | 79° |
| 2026-05-03 23:47 | 46.06293 | -49.56221 | 30993 ft | 568 kts | 78° |
| 2026-05-03 23:48 | 46.07881 | -49.45045 | 31000 ft | 568 kts | 78° |
| 2026-05-03 23:48 | 46.09453 | -49.33872 | 30998 ft | 568 kts | 79° |
| 2026-05-03 23:49 | 46.11007 | -49.22715 | 30999 ft | 568 kts | 79° |
| 2026-05-03 23:49 | 46.12550 | -49.11555 | 31012 ft | 568 kts | 79° |
| 2026-05-03 23:50 | 46.13831 | -49.02217 | 31008 ft | 569 kts | 79° |
| 2026-05-03 23:50 | 46.15603 | -48.89211 | 31010 ft | 569 kts | 79° |
| 2026-05-03 23:51 | 46.17117 | -48.78007 | 31009 ft | 568 kts | 79° |
| 2026-05-03 23:51 | 46.18616 | -48.66826 | 31008 ft | 568 kts | 79° |
| 2026-05-03 23:52 | 46.20105 | -48.55628 | 31019 ft | 569 kts | 79° |
| 2026-05-03 23:52 | 46.21342 | -48.46264 | 31014 ft | 570 kts | 79° |
| 2026-05-03 23:53 | 46.22826 | -48.34938 | 31022 ft | 570 kts | 79° |
| 2026-05-03 23:53 | 46.24300 | -48.23606 | 31021 ft | 570 kts | 79° |
| 2026-05-03 23:54 | 46.25740 | -48.12438 | 31032 ft | 569 kts | 79° |
| 2026-05-03 23:54 | 46.27184 | -48.01149 | 31034 ft | 570 kts | 79° |
| 2026-05-03 23:55 | 46.28608 | -47.89930 | 31033 ft | 571 kts | 79° |
| 2026-05-03 23:55 | 46.30035 | -47.78583 | 31038 ft | 571 kts | 79° |
| 2026-05-03 23:56 | 46.31441 | -47.67320 | 31036 ft | 571 kts | 79° |
| 2026-05-03 23:56 | 46.32842 | -47.55994 | 31045 ft | 571 kts | 79° |
| 2026-05-03 23:57 | 46.34231 | -47.44672 | 31047 ft | 571 kts | 79° |
| 2026-05-03 23:57 | 46.35610 | -47.33334 | 31053 ft | 571 kts | 79° |
| 2026-05-03 23:58 | 46.36986 | -47.21919 | 31054 ft | 571 kts | 79° |
| 2026-05-03 23:58 | 46.38333 | -47.10652 | 31062 ft | 571 kts | 79° |
| 2026-05-03 23:59 | 46.39674 | -46.99331 | 31060 ft | 572 kts | 79° |
| 2026-05-03 23:59 | 46.41013 | -46.87929 | 31066 ft | 572 kts | 78° |
| 2026-05-04 00:00 | 46.42338 | -46.76543 | 31065 ft | 572 kts | 78° |
| 2026-05-04 00:00 | 46.43641 | -46.65250 | 31075 ft | 571 kts | 78° |
| 2026-05-04 00:01 | 46.44946 | -46.53826 | 31075 ft | 571 kts | 78° |
| 2026-05-04 00:01 | 46.46230 | -46.42487 | 31085 ft | 571 kts | 78° |
| 2026-05-04 00:02 | 46.47508 | -46.31099 | 31084 ft | 571 kts | 78° |
| 2026-05-04 00:02 | 46.48772 | -46.19736 | 31102 ft | 571 kts | 78° |
| 2026-05-04 00:03 | 46.50024 | -46.08358 | 31089 ft | 570 kts | 78° |
| 2026-05-04 00:03 | 46.51269 | -45.96943 | 31095 ft | 570 kts | 78° |
| 2026-05-04 00:04 | 46.52498 | -45.85570 | 31100 ft | 569 kts | 78° |
| 2026-05-04 00:04 | 46.53711 | -45.74229 | 31119 ft | 568 kts | 77° |
| 2026-05-04 00:05 | 46.54909 | -45.62926 | 31124 ft | 567 kts | 77° |
| 2026-05-04 00:05 | 46.56101 | -45.51565 | 31123 ft | 567 kts | 77° |
| 2026-05-04 00:06 | 46.57274 | -45.40274 | 31132 ft | 567 kts | 77° |
| 2026-05-04 00:06 | 46.58441 | -45.28938 | 31140 ft | 567 kts | 77° |
| 2026-05-04 00:07 | 46.59593 | -45.17623 | 31132 ft | 567 kts | 77° |
| 2026-05-04 00:07 | 46.60738 | -45.06259 | 31143 ft | 567 kts | 77° |
| 2026-05-04 00:08 | 46.61873 | -44.94881 | 31141 ft | 566 kts | 77° |
| 2026-05-04 00:08 | 46.62994 | -44.83534 | 31150 ft | 567 kts | 77° |
| 2026-05-04 00:09 | 46.64103 | -44.72184 | 31155 ft | 566 kts | 77° |
| 2026-05-04 00:09 | 46.65200 | -44.60838 | 31162 ft | 566 kts | 77° |
| 2026-05-04 00:10 | 46.66282 | -44.49529 | 31170 ft | 566 kts | 76° |
| 2026-05-04 00:10 | 46.67360 | -44.38141 | 31173 ft | 566 kts | 76° |
| 2026-05-04 00:11 | 46.68424 | -44.26769 | 31176 ft | 566 kts | 76° |
| 2026-05-04 00:11 | 46.69475 | -44.15406 | 31181 ft | 564 kts | 76° |
| 2026-05-04 00:12 | 46.70511 | -44.04099 | 31189 ft | 564 kts | 76° |
| 2026-05-04 00:12 | 46.71543 | -43.92707 | 31196 ft | 564 kts | 76° |
| 2026-05-04 00:13 | 46.72556 | -43.81383 | 31201 ft | 565 kts | 76° |
| 2026-05-04 00:13 | 46.73559 | -43.70046 | 31208 ft | 564 kts | 76° |
| 2026-05-04 00:14 | 46.74550 | -43.58712 | 31211 ft | 563 kts | 76° |
| 2026-05-04 00:14 | 46.75524 | -43.47434 | 31212 ft | 561 kts | 76° |
| 2026-05-04 00:15 | 46.76489 | -43.36145 | 31222 ft | 561 kts | 76° |
| 2026-05-04 00:15 | 46.77442 | -43.24860 | 31229 ft | 560 kts | 76° |
| 2026-05-04 00:16 | 46.78386 | -43.13559 | 31233 ft | 560 kts | 76° |
| 2026-05-04 00:16 | 46.79314 | -43.02289 | 31232 ft | 559 kts | 77° |
| 2026-05-04 00:17 | 46.80232 | -42.91007 | 31241 ft | 559 kts | 77° |
| 2026-05-04 00:17 | 46.81131 | -42.79828 | 31241 ft | 558 kts | 77° |
| 2026-05-04 00:18 | 46.82022 | -42.68591 | 31248 ft | 556 kts | 77° |
| 2026-05-04 00:18 | 46.82905 | -42.57336 | 31254 ft | 556 kts | 78° |
| 2026-05-04 00:19 | 46.83771 | -42.46150 | 31260 ft | 555 kts | 78° |
| 2026-05-04 00:19 | 46.84628 | -42.34919 | 31266 ft | 554 kts | 78° |
| 2026-05-04 00:20 | 46.85473 | -42.23723 | 31270 ft | 555 kts | 79° |
| 2026-05-04 00:20 | 46.86305 | -42.12532 | 31277 ft | 554 kts | 79° |
| 2026-05-04 00:21 | 46.87130 | -42.01285 | 31276 ft | 553 kts | 79° |
| 2026-05-04 00:21 | 46.87938 | -41.90116 | 31281 ft | 552 kts | 80° |
| 2026-05-04 00:22 | 46.88734 | -41.78965 | 31282 ft | 551 kts | 81° |
| 2026-05-04 00:22 | 46.89513 | -41.67905 | 31288 ft | 550 kts | 81° |
| 2026-05-04 00:23 | 46.90289 | -41.56726 | 31290 ft | 549 kts | 81° |
| 2026-05-04 00:23 | 46.91045 | -41.45675 | 31295 ft | 548 kts | 81° |
| 2026-05-04 00:24 | 46.91796 | -41.34535 | 31298 ft | 547 kts | 82° |
| 2026-05-04 00:24 | 46.92525 | -41.23570 | 31300 ft | 545 kts | 82° |
| 2026-05-04 00:25 | 46.93247 | -41.12544 | 31314 ft | 545 kts | 82° |
| 2026-05-04 00:25 | 46.93843 | -41.03312 | 31307 ft | 544 kts | 82° |
| 2026-05-04 00:26 | 46.94661 | -40.90448 | 31317 ft | 543 kts | 83° |
| 2026-05-04 00:26 | 46.95238 | -40.81235 | 31321 ft | 542 kts | 83° |
| 2026-05-04 00:27 | 46.95911 | -40.70325 | 31322 ft | 541 kts | 83° |
| 2026-05-04 00:27 | 46.96577 | -40.59374 | 31325 ft | 540 kts | 83° |
| 2026-05-04 00:28 | 46.97233 | -40.48396 | 31330 ft | 539 kts | 83° |
| 2026-05-04 00:28 | 46.97876 | -40.37469 | 31334 ft | 538 kts | 84° |
| 2026-05-04 00:29 | 46.98506 | -40.26574 | 31336 ft | 537 kts | 84° |
| 2026-05-04 00:29 | 46.99124 | -40.15725 | 31345 ft | 536 kts | 84° |
| 2026-05-04 00:30 | 46.99736 | -40.04800 | 31340 ft | 535 kts | 85° |
| 2026-05-04 00:30 | 47.00741 | -39.94024 | 31348 ft | 533 kts | 76° |
| 2026-05-04 00:31 | 47.02364 | -39.83406 | 31353 ft | 533 kts | 77° |
| 2026-05-04 00:31 | 47.03929 | -39.72866 | 31354 ft | 532 kts | 77° |
| 2026-05-04 00:32 | 47.05456 | -39.62246 | 31354 ft | 531 kts | 78° |
| 2026-05-04 00:32 | 47.06956 | -39.51647 | 31358 ft | 531 kts | 78° |
| 2026-05-04 00:33 | 47.09189 | -39.35751 | 31363 ft | 530 kts | 78° |
| 2026-05-04 00:34 | 47.10667 | -39.25150 | 31369 ft | 530 kts | 78° |
| 2026-05-04 00:34 | 47.12136 | -39.14545 | 31371 ft | 529 kts | 79° |
| 2026-05-04 00:35 | 47.13595 | -39.03933 | 31374 ft | 529 kts | 79° |
| 2026-05-04 00:35 | 47.15046 | -38.93304 | 31379 ft | 529 kts | 79° |
| 2026-05-04 00:36 | 47.16468 | -38.82812 | 31380 ft | 528 kts | 79° |
| 2026-05-04 00:36 | 47.17900 | -38.72160 | 31382 ft | 528 kts | 79° |
| 2026-05-04 00:37 | 47.19315 | -38.61563 | 31383 ft | 528 kts | 80° |
| 2026-05-04 00:37 | 47.20726 | -38.50917 | 31385 ft | 527 kts | 80° |
| 2026-05-04 00:38 | 47.22111 | -38.40384 | 31390 ft | 527 kts | 80° |
| 2026-05-04 00:38 | 47.23493 | -38.29793 | 31391 ft | 527 kts | 80° |
| 2026-05-04 00:39 | 47.24865 | -38.19203 | 31391 ft | 527 kts | 81° |
| 2026-05-04 00:39 | 47.26230 | -38.08585 | 31394 ft | 526 kts | 81° |
| 2026-05-04 00:40 | 47.27581 | -37.97999 | 31395 ft | 526 kts | 81° |
| 2026-05-04 00:40 | 47.28924 | -37.87384 | 31399 ft | 526 kts | 81° |
| 2026-05-04 00:41 | 47.30254 | -37.76800 | 31398 ft | 526 kts | 81° |
| 2026-05-04 00:41 | 47.31572 | -37.66222 | 31403 ft | 525 kts | 81° |
| 2026-05-04 00:42 | 47.32880 | -37.55638 | 31404 ft | 525 kts | 81° |
| 2026-05-04 00:42 | 47.34185 | -37.44999 | 31405 ft | 525 kts | 81° |
| 2026-05-04 00:43 | 47.35477 | -37.34382 | 31407 ft | 525 kts | 82° |
| 2026-05-04 00:43 | 47.36746 | -37.23864 | 31408 ft | 524 kts | 82° |
| 2026-05-04 00:44 | 47.38018 | -37.13238 | 31406 ft | 524 kts | 82° |
| 2026-05-04 00:44 | 47.39273 | -37.02670 | 31411 ft | 524 kts | 82° |
| 2026-05-04 00:45 | 47.40526 | -36.92029 | 31412 ft | 523 kts | 82° |
| 2026-05-04 00:45 | 47.41763 | -36.81434 | 31410 ft | 524 kts | 82° |
| 2026-05-04 00:46 | 47.42992 | -36.70822 | 31413 ft | 524 kts | 82° |
| 2026-05-04 00:46 | 47.44200 | -36.60300 | 31411 ft | 523 kts | 82° |
| 2026-05-04 00:47 | 47.45415 | -36.49627 | 31418 ft | 523 kts | 82° |
| 2026-05-04 00:47 | 47.46613 | -36.39011 | 31415 ft | 524 kts | 82° |
| 2026-05-04 00:48 | 47.47797 | -36.28436 | 31417 ft | 524 kts | 82° |
| 2026-05-04 00:48 | 47.48978 | -36.17789 | 31419 ft | 524 kts | 82° |
| 2026-05-04 00:49 | 47.50148 | -36.07151 | 31420 ft | 524 kts | 82° |
| 2026-05-04 00:49 | 47.51312 | -35.96462 | 31434 ft | 524 kts | 82° |
| 2026-05-04 00:50 | 47.52465 | -35.85792 | 31424 ft | 524 kts | 82° |
| 2026-05-04 00:50 | 47.53607 | -35.75125 | 31425 ft | 524 kts | 82° |
| 2026-05-04 00:51 | 47.54731 | -35.64526 | 31428 ft | 524 kts | 82° |
| 2026-05-04 00:51 | 47.55851 | -35.53866 | 31435 ft | 524 kts | 82° |
| 2026-05-04 00:52 | 47.56960 | -35.43219 | 31441 ft | 523 kts | 82° |
| 2026-05-04 00:52 | 47.58055 | -35.32597 | 31429 ft | 523 kts | 82° |
| 2026-05-04 00:53 | 47.59148 | -35.21898 | 31430 ft | 523 kts | 82° |
| 2026-05-04 00:53 | 47.60231 | -35.11207 | 31448 ft | 523 kts | 82° |
| 2026-05-04 00:54 | 47.61299 | -35.00550 | 31447 ft | 523 kts | 82° |
| 2026-05-04 00:54 | 47.62354 | -34.89923 | 31433 ft | 523 kts | 82° |
| 2026-05-04 00:55 | 47.63402 | -34.79255 | 31432 ft | 523 kts | 82° |
| 2026-05-04 00:55 | 47.64446 | -34.68533 | 31448 ft | 522 kts | 82° |
| 2026-05-04 00:56 | 47.65477 | -34.57841 | 31451 ft | 522 kts | 82° |
| 2026-05-04 00:56 | 47.66488 | -34.47244 | 31434 ft | 522 kts | 82° |
| 2026-05-04 00:57 | 47.67501 | -34.36517 | 31456 ft | 522 kts | 82° |
| 2026-05-04 00:57 | 47.68499 | -34.25839 | 31460 ft | 522 kts | 82° |
| 2026-05-04 00:58 | 47.69488 | -34.15151 | 31442 ft | 522 kts | 82° |
| 2026-05-04 00:58 | 47.70464 | -34.04483 | 31458 ft | 522 kts | 82° |
| 2026-05-04 00:59 | 47.71426 | -33.93869 | 31460 ft | 521 kts | 82° |
| 2026-05-04 00:59 | 47.72382 | -33.83202 | 31447 ft | 521 kts | 82° |
| 2026-05-04 01:00 | 47.73329 | -33.72525 | 31444 ft | 522 kts | 82° |
| 2026-05-04 01:00 | 47.74265 | -33.61850 | 31464 ft | 522 kts | 82° |
| 2026-05-04 01:01 | 47.75194 | -33.51148 | 31463 ft | 521 kts | 82° |
| 2026-05-04 01:01 | 47.75958 | -33.42254 | 31447 ft | 521 kts | 82° |
| 2026-05-04 01:02 | 47.76866 | -33.31563 | 31465 ft | 521 kts | 82° |
| 2026-05-04 01:02 | 47.77767 | -33.20846 | 31470 ft | 521 kts | 82° |
| 2026-05-04 01:03 | 47.78657 | -33.10137 | 31456 ft | 521 kts | 82° |
| 2026-05-04 01:03 | 47.79535 | -32.99446 | 31462 ft | 521 kts | 82° |
| 2026-05-04 01:04 | 47.80405 | -32.88732 | 31474 ft | 521 kts | 82° |
| 2026-05-04 01:04 | 47.81261 | -32.78060 | 31473 ft | 520 kts | 82° |
| 2026-05-04 01:05 | 47.82106 | -32.67392 | 31463 ft | 521 kts | 82° |
| 2026-05-04 01:05 | 47.82943 | -32.56710 | 31469 ft | 521 kts | 82° |
| 2026-05-04 01:06 | 47.83778 | -32.45917 | 31466 ft | 520 kts | 83° |
| 2026-05-04 01:06 | 47.84590 | -32.35280 | 31475 ft | 520 kts | 83° |
| 2026-05-04 01:07 | 47.85397 | -32.24587 | 31466 ft | 520 kts | 83° |
| 2026-05-04 01:07 | 47.86198 | -32.13833 | 31468 ft | 520 kts | 83° |
| 2026-05-04 01:08 | 47.86986 | -32.03125 | 31472 ft | 521 kts | 83° |
| 2026-05-04 01:08 | 47.87765 | -31.92389 | 31473 ft | 521 kts | 83° |
| 2026-05-04 01:09 | 47.88529 | -31.81719 | 31472 ft | 521 kts | 83° |
| 2026-05-04 01:09 | 47.89292 | -31.70926 | 31473 ft | 520 kts | 83° |
| 2026-05-04 01:10 | 47.90042 | -31.60166 | 31477 ft | 521 kts | 83° |
| 2026-05-04 01:10 | 47.90781 | -31.49428 | 31471 ft | 521 kts | 83° |
| 2026-05-04 01:11 | 47.91506 | -31.38737 | 31468 ft | 521 kts | 83° |
| 2026-05-04 01:11 | 47.92223 | -31.28012 | 31468 ft | 520 kts | 83° |
| 2026-05-04 01:12 | 47.92930 | -31.17284 | 31470 ft | 520 kts | 83° |
| 2026-05-04 01:12 | 47.93631 | -31.06500 | 31472 ft | 521 kts | 83° |
| 2026-05-04 01:13 | 47.94314 | -30.95830 | 31470 ft | 520 kts | 83° |
| 2026-05-04 01:13 | 47.94997 | -30.84997 | 31470 ft | 520 kts | 83° |
| 2026-05-04 01:14 | 47.95664 | -30.74272 | 31474 ft | 520 kts | 83° |
| 2026-05-04 01:14 | 47.96321 | -30.63524 | 31470 ft | 520 kts | 83° |
| 2026-05-04 01:15 | 47.96970 | -30.52751 | 31465 ft | 520 kts | 83° |
| 2026-05-04 01:15 | 47.97548 | -30.43002 | 31463 ft | 520 kts | 83° |
| 2026-05-04 01:16 | 47.98176 | -30.32258 | 31464 ft | 520 kts | 83° |
| 2026-05-04 01:16 | 47.98794 | -30.21516 | 31465 ft | 520 kts | 83° |
| 2026-05-04 01:17 | 47.99402 | -30.10778 | 31468 ft | 520 kts | 83° |
| 2026-05-04 01:17 | 47.99617 | -29.99983 | 31460 ft | 523 kts | 92° |
| 2026-05-04 01:18 | 47.98476 | -29.89219 | 31467 ft | 526 kts | 102° |
| 2026-05-04 01:18 | 47.96766 | -29.78585 | 31459 ft | 526 kts | 101° |
| 2026-05-04 01:19 | 47.95114 | -29.67947 | 31458 ft | 526 kts | 101° |
| 2026-05-04 01:19 | 47.93478 | -29.57292 | 31455 ft | 526 kts | 101° |
| 2026-05-04 01:20 | 47.91842 | -29.46678 | 31454 ft | 527 kts | 101° |
| 2026-05-04 01:20 | 47.90187 | -29.36032 | 31452 ft | 527 kts | 101° |
| 2026-05-04 01:21 | 47.88514 | -29.25358 | 31455 ft | 528 kts | 102° |
| 2026-05-04 01:21 | 47.86834 | -29.14706 | 31453 ft | 528 kts | 102° |
| 2026-05-04 01:22 | 47.85144 | -29.04063 | 31451 ft | 529 kts | 102° |
| 2026-05-04 01:22 | 47.83449 | -28.93455 | 31450 ft | 529 kts | 102° |
| 2026-05-04 01:23 | 47.81725 | -28.82741 | 31452 ft | 530 kts | 102° |
| 2026-05-04 01:23 | 47.80006 | -28.72118 | 31446 ft | 531 kts | 102° |
| 2026-05-04 01:24 | 47.78269 | -28.61458 | 31441 ft | 531 kts | 102° |
| 2026-05-04 01:24 | 47.76517 | -28.50772 | 31446 ft | 531 kts | 103° |
| 2026-05-04 01:25 | 47.74770 | -28.40178 | 31443 ft | 531 kts | 103° |
| 2026-05-04 01:25 | 47.72989 | -28.29453 | 31442 ft | 532 kts | 103° |
| 2026-05-04 01:26 | 47.71201 | -28.18749 | 31441 ft | 532 kts | 103° |
| 2026-05-04 01:26 | 47.69419 | -28.08150 | 31431 ft | 533 kts | 103° |
| 2026-05-04 01:27 | 47.67602 | -27.97404 | 31435 ft | 533 kts | 103° |
| 2026-05-04 01:27 | 47.65789 | -27.86751 | 31434 ft | 533 kts | 104° |
| 2026-05-04 01:28 | 47.63975 | -27.76159 | 31433 ft | 534 kts | 104° |
| 2026-05-04 01:28 | 47.62132 | -27.65461 | 31432 ft | 534 kts | 104° |
| 2026-05-04 01:29 | 47.60289 | -27.54830 | 31430 ft | 534 kts | 104° |
| 2026-05-04 01:29 | 47.58423 | -27.44126 | 31427 ft | 534 kts | 104° |
| 2026-05-04 01:30 | 47.56548 | -27.33441 | 31424 ft | 534 kts | 104° |
| 2026-05-04 01:30 | 47.54670 | -27.22798 | 31469 ft | 536 kts | 104° |
| 2026-05-04 01:30 | 47.53730 | -27.17497 | 31679 ft | 536 kts | 104° |
| 2026-05-04 01:31 | 47.52777 | -27.12138 | 31947 ft | 534 kts | 104° |
| 2026-05-04 01:31 | 47.51837 | -27.06866 | 32167 ft | 533 kts | 104° |
| 2026-05-04 01:31 | 47.50879 | -27.01509 | 32358 ft | 532 kts | 104° |
| 2026-05-04 01:31 | 47.49935 | -26.96248 | 32559 ft | 531 kts | 104° |
| 2026-05-04 01:32 | 47.48980 | -26.90937 | 32825 ft | 530 kts | 104° |
| 2026-05-04 01:32 | 47.48032 | -26.85682 | 33096 ft | 528 kts | 105° |
| 2026-05-04 01:32 | 47.47098 | -26.80521 | 33338 ft | 526 kts | 105° |
| 2026-05-04 01:33 | 47.45201 | -26.70085 | 33418 ft | 524 kts | 105° |
| 2026-05-04 01:33 | 47.43301 | -26.59685 | 33408 ft | 523 kts | 105° |
| 2026-05-04 01:34 | 47.41393 | -26.49304 | 33404 ft | 523 kts | 105° |
| 2026-05-04 01:34 | 47.39480 | -26.38958 | 33404 ft | 523 kts | 105° |
| 2026-05-04 01:35 | 47.37554 | -26.28593 | 33399 ft | 523 kts | 105° |
| 2026-05-04 01:35 | 47.35619 | -26.18242 | 33400 ft | 524 kts | 105° |
| 2026-05-04 01:36 | 47.33999 | -26.09618 | 33393 ft | 524 kts | 105° |
| 2026-05-04 01:36 | 47.32038 | -25.99228 | 33390 ft | 524 kts | 105° |
| 2026-05-04 01:37 | 47.30087 | -25.88952 | 33391 ft | 524 kts | 105° |
| 2026-05-04 01:37 | 47.28115 | -25.78622 | 33371 ft | 524 kts | 105° |
| 2026-05-04 01:38 | 47.26124 | -25.68251 | 33390 ft | 524 kts | 105° |
| 2026-05-04 01:38 | 47.24135 | -25.57942 | 33394 ft | 524 kts | 105° |
| 2026-05-04 01:39 | 47.22128 | -25.47598 | 33385 ft | 525 kts | 105° |
| 2026-05-04 01:39 | 47.20118 | -25.37292 | 33363 ft | 525 kts | 105° |
| 2026-05-04 01:40 | 47.18093 | -25.26969 | 33381 ft | 525 kts | 105° |
| 2026-05-04 01:40 | 47.16062 | -25.16664 | 33381 ft | 524 kts | 105° |
| 2026-05-04 01:41 | 47.14015 | -25.06336 | 33360 ft | 525 kts | 105° |
| 2026-05-04 01:41 | 47.11961 | -24.96030 | 33357 ft | 525 kts | 105° |
| 2026-05-04 01:42 | 47.09907 | -24.85776 | 33374 ft | 525 kts | 105° |
| 2026-05-04 01:42 | 47.07843 | -24.75523 | 33351 ft | 526 kts | 105° |
| 2026-05-04 01:43 | 47.05745 | -24.65156 | 33362 ft | 526 kts | 105° |
| 2026-05-04 01:43 | 47.03663 | -24.54923 | 33356 ft | 526 kts | 105° |
| 2026-05-04 01:44 | 47.01565 | -24.44666 | 33359 ft | 527 kts | 105° |
| 2026-05-04 01:44 | 46.99438 | -24.34319 | 33351 ft | 527 kts | 105° |
| 2026-05-04 01:45 | 46.97329 | -24.24112 | 33354 ft | 527 kts | 105° |
| 2026-05-04 01:45 | 46.94120 | -24.08683 | 33351 ft | 528 kts | 105° |
| 2026-05-04 01:46 | 46.91968 | -23.98397 | 33344 ft | 528 kts | 105° |
| 2026-05-04 01:46 | 46.89814 | -23.88158 | 33342 ft | 528 kts | 105° |
| 2026-05-04 01:47 | 46.87638 | -23.77865 | 33345 ft | 528 kts | 105° |
| 2026-05-04 01:47 | 46.85468 | -23.67653 | 33345 ft | 529 kts | 105° |
| 2026-05-04 01:48 | 46.83274 | -23.57376 | 33341 ft | 529 kts | 105° |
| 2026-05-04 01:48 | 46.81072 | -23.47115 | 33336 ft | 529 kts | 105° |
| 2026-05-04 01:49 | 46.78856 | -23.36843 | 33332 ft | 529 kts | 105° |
| 2026-05-04 01:49 | 46.76623 | -23.26542 | 33332 ft | 530 kts | 105° |
| 2026-05-04 01:50 | 46.74408 | -23.16371 | 33326 ft | 531 kts | 105° |
| 2026-05-04 01:50 | 46.72160 | -23.06099 | 33324 ft | 531 kts | 105° |
| 2026-05-04 01:51 | 46.69901 | -22.95831 | 33323 ft | 531 kts | 105° |
| 2026-05-04 01:51 | 46.67642 | -22.85611 | 33318 ft | 531 kts | 105° |
| 2026-05-04 01:52 | 46.65376 | -22.75408 | 33320 ft | 531 kts | 105° |
| 2026-05-04 01:52 | 46.63093 | -22.65182 | 33315 ft | 532 kts | 105° |
| 2026-05-04 01:53 | 46.60794 | -22.54931 | 33317 ft | 532 kts | 105° |
| 2026-05-04 01:53 | 46.58487 | -22.44693 | 33312 ft | 532 kts | 105° |
| 2026-05-04 01:54 | 46.56178 | -22.34501 | 33308 ft | 532 kts | 105° |
| 2026-05-04 01:54 | 46.53854 | -22.24286 | 33310 ft | 532 kts | 105° |
| 2026-05-04 01:55 | 46.51524 | -22.14093 | 33312 ft | 533 kts | 105° |
| 2026-05-04 01:55 | 46.49172 | -22.03852 | 33303 ft | 533 kts | 106° |
| 2026-05-04 01:56 | 46.46819 | -21.93658 | 33315 ft | 533 kts | 106° |
| 2026-05-04 01:56 | 46.44460 | -21.83483 | 33317 ft | 533 kts | 106° |
| 2026-05-04 01:57 | 46.42082 | -21.73278 | 33300 ft | 533 kts | 106° |
| 2026-05-04 01:57 | 46.39698 | -21.63091 | 33306 ft | 533 kts | 106° |
| 2026-05-04 01:58 | 46.37324 | -21.52998 | 33297 ft | 534 kts | 106° |
| 2026-05-04 01:58 | 46.34900 | -21.42735 | 33298 ft | 534 kts | 106° |
| 2026-05-04 01:59 | 46.32506 | -21.32648 | 33295 ft | 534 kts | 106° |
| 2026-05-04 01:59 | 46.30081 | -21.22480 | 33297 ft | 534 kts | 106° |
| 2026-05-04 02:00 | 46.27654 | -21.12348 | 33297 ft | 534 kts | 106° |
| 2026-05-04 02:00 | 46.25208 | -21.02182 | 33295 ft | 535 kts | 106° |
| 2026-05-04 02:01 | 46.22751 | -20.92014 | 33294 ft | 535 kts | 106° |
| 2026-05-04 02:01 | 46.20288 | -20.81874 | 33285 ft | 535 kts | 106° |
| 2026-05-04 02:02 | 46.17826 | -20.71779 | 33287 ft | 535 kts | 106° |
| 2026-05-04 02:02 | 46.15329 | -20.61590 | 33283 ft | 535 kts | 106° |
| 2026-05-04 02:03 | 46.12855 | -20.51539 | 33293 ft | 535 kts | 107° |
| 2026-05-04 02:03 | 46.10362 | -20.41452 | 33283 ft | 536 kts | 107° |
| 2026-05-04 02:04 | 46.07835 | -20.31277 | 33278 ft | 537 kts | 107° |
| 2026-05-04 02:04 | 46.05318 | -20.21182 | 33285 ft | 537 kts | 107° |
| 2026-05-04 02:05 | 46.02793 | -20.11104 | 33284 ft | 537 kts | 107° |
| 2026-05-04 02:05 | 46.00245 | -20.00971 | 33275 ft | 536 kts | 107° |
| 2026-05-04 02:06 | 45.97730 | -19.90893 | 33276 ft | 536 kts | 106° |
| 2026-05-04 02:06 | 45.95220 | -19.80719 | 33277 ft | 537 kts | 106° |
| 2026-05-04 02:07 | 45.92736 | -19.70690 | 33277 ft | 537 kts | 106° |
| 2026-05-04 02:07 | 45.90193 | -19.60494 | 33273 ft | 538 kts | 106° |
| 2026-05-04 02:08 | 45.87670 | -19.50439 | 33269 ft | 538 kts | 106° |
| 2026-05-04 02:08 | 45.85134 | -19.40380 | 33265 ft | 538 kts | 106° |
| 2026-05-04 02:09 | 45.82572 | -19.30255 | 33271 ft | 538 kts | 106° |
| 2026-05-04 02:09 | 45.80004 | -19.20150 | 33270 ft | 539 kts | 107° |
| 2026-05-04 02:10 | 45.77433 | -19.10079 | 33265 ft | 539 kts | 107° |
| 2026-05-04 02:10 | 45.74855 | -19.00025 | 33266 ft | 539 kts | 107° |
| 2026-05-04 02:11 | 45.72704 | -18.91673 | 33247 ft | 539 kts | 107° |
| 2026-05-04 02:11 | 45.69670 | -18.79940 | 33251 ft | 539 kts | 107° |
| 2026-05-04 02:12 | 45.67503 | -18.71594 | 33271 ft | 539 kts | 107° |
| 2026-05-04 02:12 | 45.64872 | -18.61500 | 33252 ft | 540 kts | 107° |
| 2026-05-04 02:13 | 45.62250 | -18.51486 | 33254 ft | 540 kts | 107° |
| 2026-05-04 02:13 | 45.59598 | -18.41400 | 33254 ft | 539 kts | 107° |
| 2026-05-04 02:14 | 45.56953 | -18.31384 | 33248 ft | 539 kts | 107° |
| 2026-05-04 02:14 | 45.54307 | -18.21406 | 33243 ft | 539 kts | 107° |
| 2026-05-04 02:15 | 45.51649 | -18.11426 | 33244 ft | 539 kts | 107° |
| 2026-05-04 02:15 | 45.48973 | -18.01419 | 33242 ft | 539 kts | 107° |
| 2026-05-04 02:16 | 45.46285 | -17.91410 | 33225 ft | 539 kts | 107° |
| 2026-05-04 02:16 | 45.43600 | -17.81457 | 33234 ft | 538 kts | 107° |
| 2026-05-04 02:17 | 45.40904 | -17.71502 | 33231 ft | 538 kts | 107° |
| 2026-05-04 02:17 | 45.38198 | -17.61550 | 33229 ft | 538 kts | 107° |
| 2026-05-04 02:18 | 45.35505 | -17.51690 | 33227 ft | 538 kts | 108° |
| 2026-05-04 02:18 | 45.32789 | -17.41783 | 33224 ft | 538 kts | 108° |
| 2026-05-04 02:19 | 45.30067 | -17.31897 | 33219 ft | 537 kts | 108° |
| 2026-05-04 02:19 | 45.27324 | -17.21974 | 33219 ft | 538 kts | 108° |
| 2026-05-04 02:20 | 45.24581 | -17.12091 | 33215 ft | 539 kts | 108° |
| 2026-05-04 02:20 | 45.21813 | -17.02160 | 33216 ft | 540 kts | 108° |
| 2026-05-04 02:21 | 45.19034 | -16.92233 | 33194 ft | 539 kts | 108° |
| 2026-05-04 02:21 | 45.16282 | -16.82440 | 33209 ft | 539 kts | 108° |
| 2026-05-04 02:22 | 45.13476 | -16.72492 | 33203 ft | 540 kts | 108° |
| 2026-05-04 02:22 | 45.10686 | -16.62641 | 33201 ft | 541 kts | 108° |
| 2026-05-04 02:23 | 45.07881 | -16.52779 | 33201 ft | 541 kts | 108° |
| 2026-05-04 02:23 | 45.05060 | -16.42901 | 33194 ft | 541 kts | 108° |
| 2026-05-04 02:24 | 45.02227 | -16.33018 | 33192 ft | 542 kts | 108° |
| 2026-05-04 02:24 | 44.99387 | -16.23153 | 33193 ft | 542 kts | 108° |
| 2026-05-04 02:25 | 44.96534 | -16.13280 | 33182 ft | 542 kts | 108° |
| 2026-05-04 02:25 | 44.93686 | -16.03464 | 33178 ft | 542 kts | 108° |
| 2026-05-04 02:26 | 44.90808 | -15.93585 | 33176 ft | 542 kts | 108° |
| 2026-05-04 02:26 | 44.87940 | -15.83777 | 33172 ft | 542 kts | 108° |
| 2026-05-04 02:27 | 44.85050 | -15.73935 | 33174 ft | 542 kts | 109° |
| 2026-05-04 02:27 | 44.82159 | -15.64125 | 33167 ft | 541 kts | 109° |
| 2026-05-04 02:28 | 44.79287 | -15.54420 | 33164 ft | 540 kts | 109° |
| 2026-05-04 02:28 | 44.76369 | -15.44595 | 33164 ft | 540 kts | 109° |
| 2026-05-04 02:29 | 44.73474 | -15.34886 | 33161 ft | 540 kts | 109° |
| 2026-05-04 02:29 | 44.70558 | -15.25143 | 33161 ft | 540 kts | 109° |
| 2026-05-04 02:30 | 44.67637 | -15.15423 | 33159 ft | 540 kts | 109° |
| 2026-05-04 02:30 | 44.64698 | -15.05681 | 33150 ft | 540 kts | 109° |
| 2026-05-04 02:31 | 44.61761 | -14.95980 | 33153 ft | 540 kts | 110° |
| 2026-05-04 02:31 | 44.58811 | -14.86274 | 33154 ft | 540 kts | 110° |
| 2026-05-04 02:32 | 44.55875 | -14.76654 | 33146 ft | 539 kts | 110° |
| 2026-05-04 02:32 | 44.52901 | -14.66943 | 33140 ft | 539 kts | 110° |
| 2026-05-04 02:33 | 44.49957 | -14.57366 | 33127 ft | 539 kts | 110° |
| 2026-05-04 02:33 | 44.46967 | -14.47675 | 33148 ft | 538 kts | 110° |
| 2026-05-04 02:34 | 44.44024 | -14.38173 | 33133 ft | 538 kts | 110° |
| 2026-05-04 02:34 | 44.41026 | -14.28528 | 33129 ft | 538 kts | 110° |
| 2026-05-04 02:35 | 44.38009 | -14.18860 | 33132 ft | 538 kts | 111° |
| 2026-05-04 02:35 | 44.35026 | -14.09334 | 33131 ft | 538 kts | 111° |
| 2026-05-04 02:36 | 44.32022 | -13.99779 | 33128 ft | 537 kts | 111° |
| 2026-05-04 02:36 | 44.29006 | -13.90216 | 33120 ft | 537 kts | 111° |
| 2026-05-04 02:37 | 44.25984 | -13.80675 | 33119 ft | 537 kts | 111° |
| 2026-05-04 02:37 | 44.22958 | -13.71151 | 33120 ft | 537 kts | 111° |
| 2026-05-04 02:38 | 44.19947 | -13.61713 | 33116 ft | 537 kts | 111° |
| 2026-05-04 02:38 | 44.16903 | -13.52203 | 33116 ft | 536 kts | 112° |
| 2026-05-04 02:39 | 44.13859 | -13.42728 | 33112 ft | 536 kts | 112° |
| 2026-05-04 02:39 | 44.10817 | -13.33292 | 33113 ft | 535 kts | 112° |
| 2026-05-04 02:40 | 44.07722 | -13.23724 | 33111 ft | 536 kts | 112° |
| 2026-05-04 02:40 | 44.04670 | -13.14325 | 33105 ft | 536 kts | 112° |
| 2026-05-04 02:41 | 44.01601 | -13.04900 | 33105 ft | 535 kts | 112° |
| 2026-05-04 02:41 | 43.98882 | -12.95339 | 33097 ft | 532 kts | 104° |
| 2026-05-04 02:42 | 43.96878 | -12.85448 | 33101 ft | 532 kts | 103° |
| 2026-05-04 02:42 | 43.94817 | -12.75554 | 33104 ft | 532 kts | 104° |
| 2026-05-04 02:43 | 43.92713 | -12.65692 | 33099 ft | 532 kts | 104° |
| 2026-05-04 02:43 | 43.90589 | -12.55823 | 33087 ft | 532 kts | 104° |
| 2026-05-04 02:44 | 43.88477 | -12.46050 | 33092 ft | 532 kts | 104° |
| 2026-05-04 02:44 | 43.86343 | -12.36203 | 33092 ft | 532 kts | 105° |
| 2026-05-04 02:45 | 43.84201 | -12.26364 | 33093 ft | 533 kts | 105° |
| 2026-05-04 02:45 | 43.82054 | -12.16550 | 33087 ft | 533 kts | 105° |
| 2026-05-04 02:46 | 43.79894 | -12.06719 | 33081 ft | 533 kts | 105° |
| 2026-05-04 02:46 | 43.77741 | -11.96969 | 33091 ft | 532 kts | 105° |
| 2026-05-04 02:47 | 43.75570 | -11.87179 | 33073 ft | 532 kts | 105° |
| 2026-05-04 02:47 | 43.73388 | -11.77385 | 33073 ft | 532 kts | 105° |
| 2026-05-04 02:48 | 43.71555 | -11.69193 | 33088 ft | 532 kts | 105° |
| 2026-05-04 02:48 | 43.69385 | -11.59531 | 33067 ft | 531 kts | 105° |
| 2026-05-04 02:49 | 43.67173 | -11.49732 | 33076 ft | 531 kts | 106° |
| 2026-05-04 02:49 | 43.64962 | -11.39977 | 33074 ft | 531 kts | 106° |
| 2026-05-04 02:50 | 43.62757 | -11.30295 | 33074 ft | 531 kts | 106° |
| 2026-05-04 02:50 | 43.60529 | -11.20553 | 33070 ft | 530 kts | 106° |
| 2026-05-04 02:51 | 43.58308 | -11.10886 | 33071 ft | 530 kts | 106° |
| 2026-05-04 02:51 | 43.56065 | -11.01166 | 33074 ft | 529 kts | 106° |
| 2026-05-04 02:52 | 43.53834 | -10.91538 | 33066 ft | 529 kts | 107° |
| 2026-05-04 02:52 | 43.51589 | -10.81893 | 33066 ft | 528 kts | 107° |
| 2026-05-04 02:53 | 43.49327 | -10.72220 | 33065 ft | 528 kts | 107° |
| 2026-05-04 02:53 | 43.47072 | -10.62613 | 33068 ft | 528 kts | 107° |
| 2026-05-04 02:54 | 43.44802 | -10.52988 | 33064 ft | 528 kts | 107° |
| 2026-05-04 02:54 | 43.42539 | -10.43436 | 33063 ft | 527 kts | 107° |
| 2026-05-04 02:55 | 43.39119 | -10.29069 | 33061 ft | 527 kts | 108° |
| 2026-05-04 02:56 | 43.36812 | -10.19431 | 33064 ft | 527 kts | 108° |
| 2026-05-04 02:56 | 43.34528 | -10.09932 | 33060 ft | 527 kts | 108° |
| 2026-05-04 02:57 | 43.32214 | -10.00347 | 33063 ft | 527 kts | 108° |
| 2026-05-04 02:57 | 43.29903 | -9.90811 | 33059 ft | 527 kts | 109° |
| 2026-05-04 02:58 | 43.27575 | -9.81246 | 33058 ft | 527 kts | 109° |
| 2026-05-04 02:58 | 43.25246 | -9.71721 | 33057 ft | 527 kts | 109° |
| 2026-05-04 02:59 | 43.22906 | -9.62186 | 33055 ft | 527 kts | 109° |
| 2026-05-04 02:59 | 43.20554 | -9.52645 | 33055 ft | 528 kts | 109° |
| 2026-05-04 03:00 | 43.18195 | -9.43113 | 33050 ft | 528 kts | 109° |
| 2026-05-04 03:00 | 43.15820 | -9.33559 | 33047 ft | 527 kts | 109° |
| 2026-05-04 03:01 | 43.13459 | -9.24095 | 33047 ft | 527 kts | 110° |
| 2026-05-04 03:01 | 43.11082 | -9.14612 | 33052 ft | 527 kts | 110° |
| 2026-05-04 03:02 | 43.08698 | -9.05133 | 33047 ft | 527 kts | 110° |
| 2026-05-04 03:02 | 43.06297 | -8.95630 | 33045 ft | 526 kts | 110° |
| 2026-05-04 03:03 | 43.03901 | -8.86180 | 33050 ft | 526 kts | 110° |
| 2026-05-04 03:03 | 43.01489 | -8.76710 | 33048 ft | 526 kts | 110° |
| 2026-05-04 03:04 | 42.99080 | -8.67283 | 33039 ft | 525 kts | 110° |
| 2026-05-04 03:04 | 42.96669 | -8.57889 | 33047 ft | 525 kts | 110° |
| 2026-05-04 03:05 | 42.94242 | -8.48463 | 33042 ft | 525 kts | 110° |
| 2026-05-04 03:05 | 42.92430 | -8.38807 | 33057 ft | 527 kts | 99° |
| 2026-05-04 03:06 | 42.91789 | -8.28822 | 33045 ft | 528 kts | 95° |
| 2026-05-04 03:06 | 42.91225 | -8.18848 | 33045 ft | 527 kts | 95° |
| 2026-05-04 03:07 | 42.90604 | -8.08890 | 33041 ft | 527 kts | 96° |
| 2026-05-04 03:07 | 42.89956 | -7.98896 | 33059 ft | 527 kts | 96° |
| 2026-05-04 03:08 | 42.89303 | -7.88928 | 33046 ft | 527 kts | 96° |
| 2026-05-04 03:08 | 42.88642 | -7.78951 | 33044 ft | 528 kts | 96° |
| 2026-05-04 03:09 | 42.87976 | -7.68980 | 33057 ft | 528 kts | 96° |
| 2026-05-04 03:09 | 42.87298 | -7.58995 | 33040 ft | 529 kts | 96° |
| 2026-05-04 03:10 | 42.86612 | -7.49004 | 33061 ft | 529 kts | 97° |
| 2026-05-04 03:10 | 42.85920 | -7.39065 | 33052 ft | 530 kts | 97° |
| 2026-05-04 03:11 | 42.85213 | -7.29031 | 33046 ft | 530 kts | 97° |
| 2026-05-04 03:11 | 42.84500 | -7.19027 | 33054 ft | 531 kts | 97° |
| 2026-05-04 03:12 | 42.83777 | -7.09010 | 33046 ft | 531 kts | 97° |
| 2026-05-04 03:12 | 42.83045 | -6.99003 | 33042 ft | 532 kts | 97° |
| 2026-05-04 03:13 | 42.82300 | -6.88941 | 33034 ft | 532 kts | 98° |
| 2026-05-04 03:13 | 42.81548 | -6.78909 | 33031 ft | 532 kts | 98° |
| 2026-05-04 03:14 | 42.80790 | -6.68917 | 33020 ft | 532 kts | 98° |
| 2026-05-04 03:14 | 42.80017 | -6.58821 | 33027 ft | 532 kts | 98° |
| 2026-05-04 03:15 | 42.79244 | -6.48866 | 33031 ft | 532 kts | 98° |
| 2026-05-04 03:15 | 42.78457 | -6.38834 | 33020 ft | 532 kts | 98° |
| 2026-05-04 03:16 | 42.77662 | -6.28822 | 33034 ft | 533 kts | 99° |
| 2026-05-04 03:16 | 42.76857 | -6.18799 | 33023 ft | 533 kts | 99° |
| 2026-05-04 03:17 | 42.76042 | -6.08748 | 33026 ft | 532 kts | 99° |
| 2026-05-04 03:17 | 42.75223 | -5.98756 | 33010 ft | 532 kts | 99° |
| 2026-05-04 03:18 | 42.74392 | -5.88744 | 33001 ft | 533 kts | 99° |
| 2026-05-04 03:18 | 42.73551 | -5.78695 | 32982 ft | 534 kts | 99° |
| 2026-05-04 03:19 | 42.72700 | -5.68654 | 32971 ft | 534 kts | 99° |
| 2026-05-04 03:19 | 42.71845 | -5.58669 | 32974 ft | 534 kts | 100° |
| 2026-05-04 03:20 | 42.71118 | -5.50254 | 32974 ft | 534 kts | 100° |
| 2026-05-04 03:20 | 42.70250 | -5.40280 | 32980 ft | 534 kts | 100° |
| 2026-05-04 03:21 | 42.69374 | -5.30201 | 32993 ft | 534 kts | 100° |
| 2026-05-04 03:21 | 42.68493 | -5.20144 | 33004 ft | 535 kts | 100° |
| 2026-05-04 03:22 | 42.67598 | -5.10044 | 33006 ft | 534 kts | 100° |
| 2026-05-04 03:22 | 42.66706 | -5.00073 | 32992 ft | 535 kts | 101° |
| 2026-05-04 03:23 | 42.65770 | -4.89963 | 32988 ft | 535 kts | 101° |
| 2026-05-04 03:23 | 42.64831 | -4.80006 | 32983 ft | 535 kts | 101° |
| 2026-05-04 03:24 | 42.63890 | -4.69974 | 32978 ft | 534 kts | 101° |
| 2026-05-04 03:24 | 42.62951 | -4.60014 | 32977 ft | 534 kts | 101° |
| 2026-05-04 03:25 | 42.61995 | -4.49986 | 32977 ft | 535 kts | 101° |
| 2026-05-04 03:25 | 42.61029 | -4.39966 | 32977 ft | 535 kts | 101° |
| 2026-05-04 03:26 | 42.60058 | -4.29985 | 32978 ft | 535 kts | 101° |
| 2026-05-04 03:26 | 42.59069 | -4.19904 | 32970 ft | 534 kts | 102° |
| 2026-05-04 03:27 | 42.58084 | -4.09956 | 32969 ft | 534 kts | 102° |
| 2026-05-04 03:27 | 42.57080 | -3.99904 | 32972 ft | 534 kts | 102° |
| 2026-05-04 03:28 | 42.56070 | -3.89910 | 32962 ft | 534 kts | 102° |
| 2026-05-04 03:28 | 42.55051 | -3.79900 | 32965 ft | 534 kts | 102° |
| 2026-05-04 03:29 | 42.54038 | -3.70027 | 32959 ft | 534 kts | 102° |
| 2026-05-04 03:29 | 42.52993 | -3.59934 | 32962 ft | 535 kts | 102° |
| 2026-05-04 03:30 | 42.51950 | -3.49957 | 32957 ft | 535 kts | 102° |
| 2026-05-04 03:30 | 42.50895 | -3.39934 | 32961 ft | 536 kts | 102° |
| 2026-05-04 03:31 | 42.49831 | -3.29899 | 32954 ft | 537 kts | 102° |
| 2026-05-04 03:31 | 42.48760 | -3.19895 | 32947 ft | 536 kts | 103° |
| 2026-05-04 03:32 | 42.47682 | -3.09916 | 32952 ft | 535 kts | 103° |
| 2026-05-04 03:32 | 42.46597 | -2.99933 | 32950 ft | 536 kts | 103° |
| 2026-05-04 03:33 | 42.45500 | -2.89947 | 32972 ft | 536 kts | 104° |
| 2026-05-04 03:33 | 42.43789 | -2.80180 | 32977 ft | 530 kts | 111° |
| 2026-05-04 03:34 | 42.41735 | -2.70590 | 32958 ft | 532 kts | 111° |
| 2026-05-04 03:34 | 42.39709 | -2.60906 | 32958 ft | 533 kts | 111° |
| 2026-05-04 03:35 | 42.37719 | -2.51269 | 32954 ft | 534 kts | 111° |
| 2026-05-04 03:35 | 42.35717 | -2.41606 | 32957 ft | 534 kts | 111° |
| 2026-05-04 03:36 | 42.33694 | -2.31909 | 32959 ft | 534 kts | 111° |
| 2026-05-04 03:36 | 42.31661 | -2.22221 | 32947 ft | 534 kts | 111° |
| 2026-05-04 03:37 | 42.29630 | -2.12582 | 32952 ft | 535 kts | 111° |
| 2026-05-04 03:37 | 42.27583 | -2.02905 | 32954 ft | 535 kts | 111° |
| 2026-05-04 03:38 | 42.25522 | -1.93230 | 32948 ft | 536 kts | 111° |
| 2026-05-04 03:38 | 42.23445 | -1.83540 | 32949 ft | 536 kts | 112° |
| 2026-05-04 03:39 | 42.21364 | -1.73866 | 32954 ft | 537 kts | 112° |
| 2026-05-04 03:39 | 42.19279 | -1.64213 | 32944 ft | 538 kts | 112° |
| 2026-05-04 03:40 | 42.17173 | -1.54506 | 32953 ft | 539 kts | 112° |
| 2026-05-04 03:40 | 42.15057 | -1.44793 | 32958 ft | 539 kts | 112° |
| 2026-05-04 03:41 | 42.12937 | -1.35101 | 32956 ft | 538 kts | 112° |
| 2026-05-04 03:41 | 42.10811 | -1.25434 | 32960 ft | 539 kts | 112° |
| 2026-05-04 03:42 | 42.08663 | -1.15727 | 32959 ft | 540 kts | 112° |
| 2026-05-04 03:42 | 42.06493 | -1.06026 | 32957 ft | 540 kts | 112° |
| 2026-05-04 03:43 | 42.04324 | -0.96358 | 32964 ft | 540 kts | 112° |
| 2026-05-04 03:43 | 42.02149 | -0.86688 | 32967 ft | 539 kts | 112° |
| 2026-05-04 03:44 | 41.99976 | -0.77051 | 32973 ft | 540 kts | 112° |
| 2026-05-04 03:44 | 41.97797 | -0.67385 | 32979 ft | 541 kts | 112° |
| 2026-05-04 03:45 | 41.95598 | -0.57664 | 32986 ft | 541 kts | 112° |
| 2026-05-04 03:45 | 41.93412 | -0.48047 | 32981 ft | 542 kts | 112° |
| 2026-05-04 03:46 | 41.91187 | -0.38301 | 32982 ft | 542 kts | 112° |
| 2026-05-04 03:46 | 41.88962 | -0.28607 | 32986 ft | 543 kts | 112° |
| 2026-05-04 03:47 | 41.86748 | -0.19017 | 32985 ft | 544 kts | 112° |
| 2026-05-04 03:47 | 41.84495 | -0.09280 | 32986 ft | 544 kts | 112° |
| 2026-05-04 03:48 | 41.82248 | 0.00386 | 32997 ft | 544 kts | 112° |
| 2026-05-04 03:48 | 41.79987 | 0.10075 | 32990 ft | 544 kts | 112° |
| 2026-05-04 03:49 | 41.78094 | 0.18143 | 32989 ft | 544 kts | 113° |
| 2026-05-04 03:49 | 41.75751 | 0.27865 | 32968 ft | 545 kts | 113° |
| 2026-05-04 03:50 | 41.73429 | 0.37518 | 32964 ft | 545 kts | 112° |
| 2026-05-04 03:50 | 41.71153 | 0.47139 | 32958 ft | 546 kts | 112° |
| 2026-05-04 03:51 | 41.68834 | 0.56897 | 32963 ft | 546 kts | 112° |
| 2026-05-04 03:51 | 41.66518 | 0.66576 | 32963 ft | 546 kts | 112° |
| 2026-05-04 03:52 | 41.64111 | 0.76159 | 32976 ft | 545 kts | 114° |
| 2026-05-04 03:52 | 41.61578 | 0.85718 | 32980 ft | 545 kts | 115° |
| 2026-05-04 03:53 | 41.59048 | 0.95309 | 32985 ft | 544 kts | 114° |
| 2026-05-04 03:53 | 41.56562 | 1.04790 | 32989 ft | 543 kts | 114° |
| 2026-05-04 03:54 | 41.54036 | 1.14388 | 33006 ft | 543 kts | 114° |
| 2026-05-04 03:54 | 41.51751 | 1.24009 | 32989 ft | 545 kts | 111° |
| 2026-05-04 03:55 | 41.49587 | 1.33663 | 32998 ft | 545 kts | 111° |
| 2026-05-04 03:55 | 41.47364 | 1.43321 | 32992 ft | 545 kts | 112° |
| 2026-05-04 03:56 | 41.45112 | 1.52916 | 32992 ft | 545 kts | 112° |
| 2026-05-04 03:56 | 41.42863 | 1.62468 | 32986 ft | 545 kts | 112° |
| 2026-05-04 03:57 | 41.40547 | 1.72152 | 32987 ft | 544 kts | 113° |
| 2026-05-04 03:57 | 41.38122 | 1.81688 | 32997 ft | 543 kts | 113° |
| 2026-05-04 03:58 | 41.34469 | 1.95997 | 32978 ft | 543 kts | 113° |
| 2026-05-04 03:58 | 41.32052 | 2.05505 | 32984 ft | 543 kts | 113° |
| 2026-05-04 03:59 | 41.29842 | 2.15128 | 32982 ft | 546 kts | 106° |
| 2026-05-04 03:59 | 41.28277 | 2.25044 | 32989 ft | 547 kts | 105° |
| 2026-05-04 04:00 | 41.26719 | 2.34897 | 32989 ft | 548 kts | 106° |
| 2026-05-04 04:00 | 41.25081 | 2.44854 | 32982 ft | 548 kts | 106° |
| 2026-05-04 04:01 | 41.23432 | 2.54680 | 32975 ft | 548 kts | 106° |
| 2026-05-04 04:01 | 41.21755 | 2.64618 | 32974 ft | 548 kts | 106° |
| 2026-05-04 04:02 | 41.20094 | 2.74430 | 32975 ft | 548 kts | 106° |
| 2026-05-04 04:02 | 41.18406 | 2.84357 | 32981 ft | 548 kts | 106° |
| 2026-05-04 04:03 | 41.16733 | 2.94142 | 32978 ft | 548 kts | 106° |
| 2026-05-04 04:03 | 41.15027 | 3.04062 | 32980 ft | 549 kts | 106° |
| 2026-05-04 04:04 | 41.13323 | 3.13921 | 32980 ft | 548 kts | 106° |
| 2026-05-04 04:04 | 41.11608 | 3.23790 | 32986 ft | 548 kts | 106° |
| 2026-05-04 04:05 | 41.09886 | 3.33640 | 32985 ft | 548 kts | 106° |
| 2026-05-04 04:05 | 41.08157 | 3.43482 | 32978 ft | 548 kts | 106° |
| 2026-05-04 04:06 | 41.06430 | 3.53266 | 32981 ft | 547 kts | 106° |
| 2026-05-04 04:06 | 41.04676 | 3.63089 | 32981 ft | 547 kts | 107° |
| 2026-05-04 04:07 | 41.02897 | 3.72958 | 32994 ft | 548 kts | 107° |
| 2026-05-04 04:07 | 41.01126 | 3.82767 | 32978 ft | 548 kts | 107° |
| 2026-05-04 04:08 | 40.99351 | 3.92558 | 32990 ft | 549 kts | 107° |
| 2026-05-04 04:08 | 40.97566 | 4.02367 | 32990 ft | 549 kts | 107° |
| 2026-05-04 04:09 | 40.95767 | 4.12210 | 32989 ft | 550 kts | 107° |
| 2026-05-04 04:09 | 40.93956 | 4.22061 | 32998 ft | 551 kts | 107° |
| 2026-05-04 04:10 | 40.92131 | 4.31939 | 32997 ft | 552 kts | 107° |
| 2026-05-04 04:10 | 40.90305 | 4.41781 | 32997 ft | 552 kts | 107° |
| 2026-05-04 04:11 | 40.88475 | 4.51638 | 32999 ft | 553 kts | 107° |
| 2026-05-04 04:11 | 40.86657 | 4.61535 | 32999 ft | 554 kts | 107° |
| 2026-05-04 04:12 | 40.85128 | 4.71525 | 32999 ft | 557 kts | 99° |
| 2026-05-04 04:12 | 40.84277 | 4.81659 | 33003 ft | 558 kts | 98° |
| 2026-05-04 04:13 | 40.83379 | 4.91850 | 33005 ft | 558 kts | 99° |
| 2026-05-04 04:13 | 40.82424 | 5.02059 | 33009 ft | 558 kts | 99° |
| 2026-05-04 04:14 | 40.81452 | 5.12237 | 33012 ft | 558 kts | 99° |
| 2026-05-04 04:14 | 40.80475 | 5.22412 | 33016 ft | 558 kts | 99° |
| 2026-05-04 04:15 | 40.79492 | 5.32582 | 33011 ft | 559 kts | 99° |
| 2026-05-04 04:15 | 40.78501 | 5.42753 | 33016 ft | 559 kts | 99° |
| 2026-05-04 04:16 | 40.77506 | 5.52863 | 33018 ft | 559 kts | 99° |
| 2026-05-04 04:16 | 40.76487 | 5.63123 | 33023 ft | 559 kts | 99° |
| 2026-05-04 04:17 | 40.75469 | 5.73278 | 33019 ft | 558 kts | 99° |
| 2026-05-04 04:17 | 40.74443 | 5.83421 | 33024 ft | 557 kts | 99° |
| 2026-05-04 04:18 | 40.73411 | 5.93549 | 33029 ft | 557 kts | 99° |
| 2026-05-04 04:18 | 40.72371 | 6.03619 | 33029 ft | 557 kts | 99° |
| 2026-05-04 04:19 | 40.71312 | 6.13748 | 33028 ft | 557 kts | 99° |
| 2026-05-04 04:19 | 40.70240 | 6.23920 | 33038 ft | 557 kts | 99° |
| 2026-05-04 04:20 | 40.69174 | 6.33953 | 33043 ft | 557 kts | 99° |
| 2026-05-04 04:20 | 40.68268 | 6.42426 | 33043 ft | 557 kts | 99° |
| 2026-05-04 04:21 | 40.67005 | 6.54141 | 33044 ft | 556 kts | 99° |
| 2026-05-04 04:21 | 40.66078 | 6.62662 | 33051 ft | 556 kts | 99° |
| 2026-05-04 04:22 | 40.64977 | 6.72700 | 33056 ft | 556 kts | 99° |
| 2026-05-04 04:22 | 40.63862 | 6.82787 | 33052 ft | 557 kts | 99° |
| 2026-05-04 04:23 | 40.62740 | 6.92860 | 33057 ft | 556 kts | 99° |
| 2026-05-04 04:23 | 40.61606 | 7.02956 | 33059 ft | 556 kts | 99° |
| 2026-05-04 04:24 | 40.60465 | 7.13029 | 33062 ft | 556 kts | 100° |
| 2026-05-04 04:24 | 40.59314 | 7.23116 | 33064 ft | 556 kts | 100° |
| 2026-05-04 04:25 | 40.58158 | 7.33167 | 33064 ft | 556 kts | 100° |
| 2026-05-04 04:25 | 40.57018 | 7.43188 | 33067 ft | 554 kts | 98° |
| 2026-05-04 04:26 | 40.56748 | 7.53324 | 33072 ft | 555 kts | 86° |
| 2026-05-04 04:26 | 40.57651 | 7.63372 | 33079 ft | 557 kts | 82° |
| 2026-05-04 04:27 | 40.58588 | 7.73570 | 33076 ft | 562 kts | 83° |
| 2026-05-04 04:27 | 40.59448 | 7.83776 | 33088 ft | 565 kts | 84° |
| 2026-05-04 04:28 | 40.60308 | 7.94102 | 33082 ft | 565 kts | 83° |
| 2026-05-04 04:28 | 40.61164 | 8.04377 | 33388 ft | 565 kts | 83° |
| 2026-05-04 04:29 | 40.61588 | 8.09518 | 33641 ft | 563 kts | 83° |
| 2026-05-04 04:29 | 40.62006 | 8.14622 | 33881 ft | 562 kts | 84° |
| 2026-05-04 04:29 | 40.62230 | 8.19743 | 34105 ft | 560 kts | 91° |
| 2026-05-04 04:29 | 40.61945 | 8.24868 | 34328 ft | 558 kts | 99° |
| 2026-05-04 04:30 | 40.61254 | 8.29864 | 34572 ft | 554 kts | 105° |
| 2026-05-04 04:30 | 40.60157 | 8.34732 | 34834 ft | 549 kts | 112° |
| 2026-05-04 04:30 | 40.58809 | 8.39431 | 35019 ft | 548 kts | 113° |
| 2026-05-04 04:30 | 40.57488 | 8.44062 | 35045 ft | 547 kts | 113° |
| 2026-05-04 04:31 | 40.54855 | 8.53497 | 35075 ft | 545 kts | 112° |
| 2026-05-04 04:31 | 40.52303 | 8.62795 | 35087 ft | 542 kts | 112° |
| 2026-05-04 04:32 | 40.49751 | 8.72106 | 35095 ft | 541 kts | 112° |
| 2026-05-04 04:32 | 40.47190 | 8.81401 | 35098 ft | 542 kts | 112° |
| 2026-05-04 04:33 | 40.44790 | 8.90062 | 35110 ft | 543 kts | 112° |
| 2026-05-04 04:33 | 40.42196 | 8.99392 | 35110 ft | 543 kts | 112° |
| 2026-05-04 04:34 | 40.39610 | 9.08659 | 35114 ft | 541 kts | 112° |
| 2026-05-04 04:34 | 40.37004 | 9.17966 | 35114 ft | 542 kts | 112° |
| 2026-05-04 04:35 | 40.34395 | 9.27244 | 35117 ft | 543 kts | 112° |
| 2026-05-04 04:35 | 40.31759 | 9.36589 | 35121 ft | 542 kts | 112° |
| 2026-05-04 04:36 | 40.29151 | 9.45805 | 35121 ft | 541 kts | 111° |
| 2026-05-04 04:36 | 40.26525 | 9.55047 | 35146 ft | 542 kts | 111° |
| 2026-05-04 04:37 | 40.21249 | 9.73521 | 35136 ft | 539 kts | 111° |
| 2026-05-04 04:38 | 40.18622 | 9.82667 | 35112 ft | 540 kts | 111° |
| 2026-05-04 04:38 | 40.15973 | 9.91858 | 35109 ft | 541 kts | 111° |
| 2026-05-04 04:39 | 40.13294 | 10.01120 | 35122 ft | 540 kts | 111° |
| 2026-05-04 04:39 | 40.10641 | 10.10265 | 35113 ft | 540 kts | 111° |
| 2026-05-04 04:40 | 40.07981 | 10.19397 | 35111 ft | 540 kts | 111° |
| 2026-05-04 04:40 | 40.05300 | 10.28570 | 35124 ft | 539 kts | 111° |
| 2026-05-04 04:41 | 40.02618 | 10.37718 | 35129 ft | 538 kts | 111° |
| 2026-05-04 04:41 | 39.99933 | 10.46839 | 35112 ft | 538 kts | 111° |
| 2026-05-04 04:42 | 39.97246 | 10.55939 | 35128 ft | 537 kts | 111° |
| 2026-05-04 04:42 | 39.94556 | 10.65020 | 35132 ft | 537 kts | 111° |
| 2026-05-04 04:43 | 39.91850 | 10.74118 | 35131 ft | 538 kts | 111° |
| 2026-05-04 04:43 | 39.89156 | 10.83151 | 35129 ft | 537 kts | 111° |
| 2026-05-04 04:44 | 39.86422 | 10.92282 | 35131 ft | 537 kts | 111° |
| 2026-05-04 04:44 | 39.83704 | 11.01331 | 35139 ft | 536 kts | 112° |
| 2026-05-04 04:45 | 39.80981 | 11.10366 | 35138 ft | 536 kts | 112° |
| 2026-05-04 04:47 | 39.71431 | 11.41816 | 35142 ft | 536 kts | 112° |
| 2026-05-04 04:47 | 39.68668 | 11.50849 | 35142 ft | 535 kts | 112° |
| 2026-05-04 04:48 | 39.65919 | 11.59804 | 35145 ft | 534 kts | 112° |
| 2026-05-04 04:49 | 39.59012 | 11.82177 | 35157 ft | 533 kts | 112° |
| 2026-05-04 04:49 | 39.56245 | 11.91087 | 35157 ft | 532 kts | 112° |
| 2026-05-04 04:50 | 39.53493 | 11.99922 | 35154 ft | 530 kts | 112° |
| 2026-05-04 04:50 | 39.50719 | 12.08798 | 35155 ft | 530 kts | 112° |
| 2026-05-04 04:51 | 39.47960 | 12.17599 | 35157 ft | 529 kts | 112° |
| 2026-05-04 04:51 | 39.45189 | 12.26410 | 35165 ft | 528 kts | 112° |
| 2026-05-04 04:52 | 39.42415 | 12.35201 | 35163 ft | 527 kts | 112° |
| 2026-05-04 04:52 | 39.39630 | 12.43999 | 35158 ft | 525 kts | 113° |
| 2026-05-04 04:53 | 39.36850 | 12.52753 | 35167 ft | 524 kts | 113° |
| 2026-05-04 04:53 | 39.34090 | 12.61420 | 35168 ft | 524 kts | 113° |
| 2026-05-04 04:54 | 39.31298 | 12.70154 | 35165 ft | 523 kts | 113° |
| 2026-05-04 04:54 | 39.28535 | 12.78776 | 35172 ft | 521 kts | 113° |
| 2026-05-04 04:55 | 39.26216 | 12.85992 | 35174 ft | 520 kts | 113° |
| 2026-05-04 04:55 | 39.22986 | 12.96007 | 35180 ft | 520 kts | 113° |
| 2026-05-04 04:56 | 39.20653 | 13.03220 | 35175 ft | 519 kts | 113° |
| 2026-05-04 04:56 | 39.17865 | 13.11816 | 35180 ft | 518 kts | 113° |
| 2026-05-04 04:57 | 39.15092 | 13.20340 | 35183 ft | 518 kts | 113° |
| 2026-05-04 04:57 | 39.12302 | 13.28891 | 35183 ft | 517 kts | 113° |
| 2026-05-04 04:58 | 39.09499 | 13.37455 | 35184 ft | 516 kts | 113° |
| 2026-05-04 04:58 | 39.06713 | 13.45944 | 35184 ft | 516 kts | 113° |
| 2026-05-04 04:59 | 39.03909 | 13.54457 | 35183 ft | 516 kts | 113° |
| 2026-05-04 04:59 | 39.01100 | 13.62962 | 35187 ft | 516 kts | 114° |
| 2026-05-04 05:00 | 38.98299 | 13.71419 | 35180 ft | 516 kts | 114° |
| 2026-05-04 05:01 | 38.94072 | 13.84135 | 35187 ft | 515 kts | 114° |
| 2026-05-04 05:01 | 38.91232 | 13.92645 | 35188 ft | 515 kts | 114° |
| 2026-05-04 05:02 | 38.88422 | 14.01043 | 35183 ft | 515 kts | 114° |
| 2026-05-04 05:02 | 38.85583 | 14.09505 | 35191 ft | 515 kts | 114° |
| 2026-05-04 05:03 | 38.82733 | 14.17937 | 35190 ft | 515 kts | 114° |
| 2026-05-04 05:04 | 38.76737 | 14.34663 | 35191 ft | 515 kts | 115° |
| 2026-05-04 05:04 | 38.73733 | 14.42988 | 35190 ft | 515 kts | 115° |
| 2026-05-04 05:06 | 38.61694 | 14.76333 | 35179 ft | 516 kts | 115° |
| 2026-05-04 05:07 | 38.58666 | 14.84660 | 35193 ft | 517 kts | 115° |
| 2026-05-04 05:07 | 38.55620 | 14.93011 | 35188 ft | 517 kts | 115° |
| 2026-05-04 05:09 | 38.41832 | 15.30536 | 35198 ft | 521 kts | 115° |
| 2026-05-04 05:10 | 38.38739 | 15.38889 | 35180 ft | 521 kts | 115° |
| 2026-05-04 05:10 | 38.35626 | 15.47273 | 35180 ft | 522 kts | 115° |
| 2026-05-04 05:11 | 38.32528 | 15.55596 | 35182 ft | 522 kts | 115° |
| 2026-05-04 05:11 | 38.29423 | 15.63912 | 35185 ft | 523 kts | 115° |
| 2026-05-04 05:12 | 38.26284 | 15.72297 | 35186 ft | 523 kts | 115° |
| 2026-05-04 05:12 | 38.23155 | 15.80633 | 35189 ft | 524 kts | 115° |
| 2026-05-04 05:13 | 38.19995 | 15.89027 | 35184 ft | 525 kts | 115° |
| 2026-05-04 05:13 | 38.16832 | 15.97405 | 35179 ft | 525 kts | 115° |
| 2026-05-04 05:14 | 38.13665 | 16.05772 | 35186 ft | 526 kts | 115° |
| 2026-05-04 05:14 | 38.10473 | 16.14184 | 35179 ft | 527 kts | 115° |
| 2026-05-04 05:15 | 38.07287 | 16.22552 | 35171 ft | 528 kts | 115° |
| 2026-05-04 05:15 | 38.04085 | 16.30943 | 35169 ft | 528 kts | 115° |
| 2026-05-04 05:16 | 38.00855 | 16.39384 | 35169 ft | 529 kts | 115° |
| 2026-05-04 05:16 | 37.97655 | 16.47722 | 35172 ft | 529 kts | 115° |
| 2026-05-04 05:17 | 37.94404 | 16.56171 | 35167 ft | 530 kts | 115° |
| 2026-05-04 05:17 | 37.91161 | 16.64577 | 35165 ft | 531 kts | 115° |
| 2026-05-04 05:18 | 37.87934 | 16.72918 | 35169 ft | 531 kts | 115° |
| 2026-05-04 05:18 | 37.84685 | 16.81294 | 35169 ft | 532 kts | 115° |
| 2026-05-04 05:19 | 37.81395 | 16.89752 | 35172 ft | 533 kts | 115° |
| 2026-05-04 05:19 | 37.78123 | 16.98140 | 35169 ft | 534 kts | 115° |
| 2026-05-04 05:20 | 37.74817 | 17.06593 | 35170 ft | 534 kts | 115° |
| 2026-05-04 05:20 | 37.71510 | 17.15024 | 35174 ft | 535 kts | 115° |
| 2026-05-04 05:21 | 37.68220 | 17.23391 | 35174 ft | 536 kts | 115° |
| 2026-05-04 05:21 | 37.64883 | 17.31855 | 35174 ft | 537 kts | 115° |
| 2026-05-04 05:22 | 37.61550 | 17.40287 | 35172 ft | 538 kts | 115° |
| 2026-05-04 05:22 | 37.58205 | 17.48722 | 35172 ft | 538 kts | 115° |
| 2026-05-04 05:23 | 37.54844 | 17.57178 | 35176 ft | 539 kts | 115° |
| 2026-05-04 05:23 | 37.51474 | 17.65633 | 35175 ft | 540 kts | 115° |
| 2026-05-04 05:24 | 37.48106 | 17.74062 | 35176 ft | 541 kts | 115° |
| 2026-05-04 05:24 | 37.44711 | 17.82533 | 35177 ft | 542 kts | 115° |
| 2026-05-04 05:25 | 37.41310 | 17.91000 | 35179 ft | 542 kts | 115° |
| 2026-05-04 05:25 | 37.37896 | 17.99472 | 35177 ft | 543 kts | 115° |
| 2026-05-04 05:26 | 37.34466 | 18.07965 | 35178 ft | 544 kts | 115° |
| 2026-05-04 05:26 | 37.31030 | 18.16447 | 35179 ft | 544 kts | 115° |
| 2026-05-04 05:28 | 37.17206 | 18.50352 | 35179 ft | 548 kts | 115° |
| 2026-05-04 05:29 | 37.13713 | 18.58862 | 35177 ft | 548 kts | 116° |
| 2026-05-04 05:29 | 37.10804 | 18.65933 | 35179 ft | 549 kts | 116° |
| 2026-05-04 05:31 | 36.96712 | 18.99993 | 35182 ft | 552 kts | 115° |
| 2026-05-04 05:32 | 36.93632 | 19.08743 | 35187 ft | 552 kts | 111° |
| 2026-05-04 05:33 | 36.89097 | 19.21996 | 35175 ft | 554 kts | 111° |
| 2026-05-04 05:33 | 36.86033 | 19.30841 | 35179 ft | 554 kts | 111° |
| 2026-05-04 05:34 | 36.82962 | 19.39653 | 35177 ft | 555 kts | 111° |
| 2026-05-04 05:34 | 36.79867 | 19.48510 | 35184 ft | 556 kts | 111° |
| 2026-05-04 05:35 | 36.76781 | 19.57321 | 35182 ft | 558 kts | 111° |
| 2026-05-04 05:35 | 36.73652 | 19.66232 | 35181 ft | 559 kts | 111° |
| 2026-05-04 05:36 | 36.70531 | 19.75091 | 35182 ft | 560 kts | 111° |
| 2026-05-04 05:36 | 36.67384 | 19.84001 | 35178 ft | 560 kts | 111° |
| 2026-05-04 05:37 | 36.64244 | 19.92863 | 35180 ft | 560 kts | 111° |
| 2026-05-04 05:37 | 36.61089 | 20.01741 | 35182 ft | 561 kts | 111° |
| 2026-05-04 05:38 | 36.56339 | 20.15061 | 35184 ft | 562 kts | 111° |
| 2026-05-04 05:38 | 36.53187 | 20.23868 | 35168 ft | 562 kts | 112° |
| 2026-05-04 05:39 | 36.48394 | 20.37211 | 35185 ft | 563 kts | 112° |
| 2026-05-04 05:40 | 36.43593 | 20.50520 | 35186 ft | 564 kts | 112° |
| 2026-05-04 05:40 | 36.40351 | 20.59474 | 35190 ft | 565 kts | 112° |
| 2026-05-04 05:41 | 36.37125 | 20.68357 | 35184 ft | 565 kts | 112° |
| 2026-05-04 05:41 | 36.33895 | 20.77226 | 35192 ft | 565 kts | 112° |
| 2026-05-04 05:42 | 36.30657 | 20.86095 | 35185 ft | 566 kts | 112° |
| 2026-05-04 05:42 | 36.27377 | 20.95050 | 35182 ft | 567 kts | 112° |
| 2026-05-04 05:43 | 36.24125 | 21.03903 | 35187 ft | 567 kts | 112° |
| 2026-05-04 05:45 | 36.10949 | 21.39521 | 35186 ft | 567 kts | 112° |
| 2026-05-04 05:47 | 35.97698 | 21.74942 | 35188 ft | 570 kts | 113° |
| 2026-05-04 05:47 | 35.94347 | 21.83836 | 35186 ft | 570 kts | 113° |
| 2026-05-04 05:48 | 35.90995 | 21.92709 | 35192 ft | 570 kts | 113° |
| 2026-05-04 05:48 | 35.87634 | 22.01579 | 35181 ft | 570 kts | 113° |
| 2026-05-04 05:49 | 35.84267 | 22.10443 | 35180 ft | 571 kts | 113° |
| 2026-05-04 05:49 | 35.80893 | 22.19299 | 35185 ft | 571 kts | 113° |
| 2026-05-04 05:51 | 35.67289 | 22.54762 | 35191 ft | 574 kts | 113° |
| 2026-05-04 05:52 | 35.63858 | 22.63645 | 35189 ft | 575 kts | 113° |
| 2026-05-04 05:52 | 35.60411 | 22.72544 | 35188 ft | 576 kts | 113° |
| 2026-05-04 05:54 | 35.46519 | 23.08162 | 35182 ft | 580 kts | 114° |
| 2026-05-04 05:55 | 35.43035 | 23.17032 | 35179 ft | 580 kts | 114° |
| 2026-05-04 05:55 | 35.39505 | 23.25999 | 35181 ft | 581 kts | 114° |
| 2026-05-04 05:56 | 35.36003 | 23.34867 | 35179 ft | 582 kts | 114° |
| 2026-05-04 05:56 | 35.32446 | 23.43852 | 35177 ft | 582 kts | 114° |
| 2026-05-04 05:57 | 35.28909 | 23.52764 | 35176 ft | 582 kts | 114° |
| 2026-05-04 05:57 | 35.25359 | 23.61684 | 35170 ft | 583 kts | 114° |
| 2026-05-04 05:58 | 35.21882 | 23.70658 | 35170 ft | 582 kts | 110° |
| 2026-05-04 05:58 | 35.18887 | 23.79777 | 35171 ft | 581 kts | 109° |
| 2026-05-04 05:59 | 35.15867 | 23.89034 | 35169 ft | 582 kts | 109° |
| 2026-05-04 05:59 | 35.12850 | 23.98173 | 35163 ft | 583 kts | 109° |
| 2026-05-04 06:00 | 35.09788 | 24.07364 | 35155 ft | 583 kts | 110° |
| 2026-05-04 06:00 | 35.06715 | 24.16551 | 35157 ft | 583 kts | 110° |
| 2026-05-04 06:01 | 35.03654 | 24.25681 | 35151 ft | 583 kts | 110° |
| 2026-05-04 06:03 | 34.91305 | 24.62267 | 35144 ft | 583 kts | 110° |
| 2026-05-04 06:05 | 34.77782 | 25.01838 | 35122 ft | 584 kts | 111° |
| 2026-05-04 06:06 | 34.74649 | 25.10933 | 35126 ft | 584 kts | 111° |
| 2026-05-04 06:06 | 34.71479 | 25.20110 | 35120 ft | 584 kts | 111° |
| 2026-05-04 06:07 | 34.68326 | 25.29212 | 35120 ft | 584 kts | 111° |
| 2026-05-04 06:07 | 34.65181 | 25.38262 | 35116 ft | 585 kts | 111° |
| 2026-05-04 06:08 | 34.62020 | 25.47336 | 35118 ft | 585 kts | 111° |
| 2026-05-04 06:08 | 34.58818 | 25.56496 | 35114 ft | 585 kts | 111° |
| 2026-05-04 06:09 | 34.55645 | 25.65549 | 35113 ft | 585 kts | 112° |
| 2026-05-04 06:11 | 34.42829 | 26.01854 | 35108 ft | 585 kts | 112° |
| 2026-05-04 06:13 | 34.29941 | 26.37954 | 35103 ft | 586 kts | 112° |
| 2026-05-04 06:14 | 34.18533 | 26.69569 | 35097 ft | 587 kts | 113° |
| 2026-05-04 06:15 | 34.15220 | 26.78693 | 35096 ft | 587 kts | 113° |
| 2026-05-04 06:15 | 34.11950 | 26.87676 | 35091 ft | 588 kts | 114° |
| 2026-05-04 06:16 | 34.08661 | 26.96683 | 35083 ft | 587 kts | 114° |
| 2026-05-04 06:16 | 34.05345 | 27.05741 | 35083 ft | 587 kts | 114° |
| 2026-05-04 06:17 | 34.02057 | 27.14697 | 35078 ft | 587 kts | 114° |
| 2026-05-04 06:17 | 33.98743 | 27.23703 | 35080 ft | 587 kts | 114° |
| 2026-05-04 06:18 | 33.94602 | 27.32111 | 35079 ft | 583 kts | 133° |
| 2026-05-04 06:20 | 33.68780 | 27.54497 | 35064 ft | 572 kts | 152° |
| 2026-05-04 06:21 | 33.52556 | 27.67503 | 35072 ft | 571 kts | 152° |
| 2026-05-04 06:22 | 33.45920 | 27.72790 | 35072 ft | 571 kts | 152° |
| 2026-05-04 06:25 | 32.99623 | 28.09419 | 35078 ft | 570 kts | 153° |
| 2026-05-04 06:26 | 32.92991 | 28.14627 | 35079 ft | 569 kts | 153° |
| 2026-05-04 06:26 | 32.86399 | 28.19796 | 35077 ft | 569 kts | 153° |
| 2026-05-04 06:27 | 32.69856 | 28.32723 | 35084 ft | 568 kts | 154° |
| 2026-05-04 06:28 | 32.63301 | 28.37830 | 35084 ft | 568 kts | 154° |
| 2026-05-04 06:28 | 32.56646 | 28.43005 | 35081 ft | 568 kts | 154° |
| 2026-05-04 06:29 | 32.50036 | 28.48136 | 35079 ft | 567 kts | 154° |
| 2026-05-04 06:29 | 32.43459 | 28.53232 | 35092 ft | 567 kts | 154° |
| 2026-05-04 06:30 | 32.36851 | 28.58343 | 35090 ft | 567 kts | 154° |
| 2026-05-04 06:30 | 32.30256 | 28.63436 | 35088 ft | 566 kts | 154° |
| 2026-05-04 06:31 | 32.23659 | 28.68521 | 35087 ft | 566 kts | 154° |
| 2026-05-04 06:31 | 32.17049 | 28.73606 | 35089 ft | 566 kts | 154° |
| 2026-05-04 06:33 | 31.90627 | 28.93848 | 35105 ft | 566 kts | 155° |
| 2026-05-04 06:34 | 31.84003 | 28.98901 | 35096 ft | 566 kts | 155° |
| 2026-05-04 06:34 | 31.77419 | 29.03811 | 35087 ft | 560 kts | 160° |
| 2026-05-04 06:35 | 31.73857 | 29.05657 | 35099 ft | 544 kts | 171° |
| 2026-05-04 06:36 | 31.49973 | 29.16020 | 35107 ft | 582 kts | 139° |
| 2026-05-04 06:37 | 31.44394 | 29.22969 | 35094 ft | 586 kts | 139° |
| 2026-05-04 06:37 | 31.39720 | 29.28718 | 35083 ft | 586 kts | 140° |
| 2026-05-04 06:38 | 31.33124 | 29.36702 | 35077 ft | 583 kts | 140° |
| 2026-05-04 06:40 | 31.11456 | 29.62662 | 35072 ft | 581 kts | 141° |
| 2026-05-04 06:40 | 31.05772 | 29.69451 | 35072 ft | 580 kts | 141° |
| 2026-05-04 06:41 | 31.00153 | 29.76150 | 35079 ft | 579 kts | 141° |
| 2026-05-04 06:41 | 30.94547 | 29.82822 | 35072 ft | 578 kts | 141° |
| 2026-05-04 06:42 | 30.88911 | 29.89516 | 35070 ft | 576 kts | 141° |
| 2026-05-04 06:44 | 30.66489 | 30.16030 | 35070 ft | 572 kts | 141° |
| 2026-05-04 06:44 | 30.60903 | 30.22606 | 35072 ft | 571 kts | 141° |
| 2026-05-04 06:45 | 30.55317 | 30.29171 | 35079 ft | 570 kts | 141° |
| 2026-05-04 06:45 | 30.49735 | 30.35720 | 35067 ft | 569 kts | 142° |
| 2026-05-04 06:46 | 30.44176 | 30.42231 | 35072 ft | 568 kts | 142° |
| 2026-05-04 06:46 | 30.38613 | 30.48734 | 35070 ft | 568 kts | 142° |
| 2026-05-04 06:48 | 30.16345 | 30.74657 | 35002 ft | 566 kts | 142° |
| 2026-05-04 06:50 | 29.94111 | 31.00367 | 35024 ft | 564 kts | 142° |
| 2026-05-04 06:51 | 29.88551 | 31.06768 | 35059 ft | 564 kts | 142° |
| 2026-05-04 06:51 | 29.82992 | 31.13158 | 35096 ft | 563 kts | 142° |
| 2026-05-04 06:52 | 29.77438 | 31.19534 | 35103 ft | 562 kts | 142° |
| 2026-05-04 06:52 | 29.71906 | 31.25872 | 35107 ft | 561 kts | 142° |
| 2026-05-04 06:53 | 29.66326 | 31.32254 | 35126 ft | 561 kts | 142° |
| 2026-05-04 06:53 | 29.60804 | 31.38558 | 35120 ft | 560 kts | 143° |
| 2026-05-04 06:54 | 29.55268 | 31.44869 | 35125 ft | 560 kts | 143° |
| 2026-05-04 06:54 | 29.49717 | 31.51187 | 35129 ft | 560 kts | 143° |
| 2026-05-04 06:55 | 29.44198 | 31.57461 | 35128 ft | 559 kts | 143° |
| 2026-05-04 06:55 | 29.38666 | 31.63738 | 35120 ft | 558 kts | 143° |
| 2026-05-04 06:57 | 29.16566 | 31.88709 | 35124 ft | 558 kts | 143° |
| 2026-05-04 06:58 | 29.11040 | 31.94928 | 35144 ft | 557 kts | 143° |
| 2026-05-04 06:58 | 29.05489 | 32.01167 | 35113 ft | 556 kts | 143° |
| 2026-05-04 06:59 | 28.99996 | 32.07329 | 35127 ft | 556 kts | 143° |
| 2026-05-04 06:59 | 28.94439 | 32.13551 | 35127 ft | 556 kts | 143° |
| 2026-05-04 07:01 | 28.72399 | 32.38145 | 35122 ft | 553 kts | 144° |
| 2026-05-04 07:02 | 28.66879 | 32.44278 | 35112 ft | 553 kts | 144° |
| 2026-05-04 07:02 | 28.61377 | 32.50382 | 35121 ft | 553 kts | 144° |
| 2026-05-04 07:03 | 28.55845 | 32.56510 | 35113 ft | 553 kts | 144° |
| 2026-05-04 07:03 | 28.50341 | 32.62599 | 35113 ft | 553 kts | 144° |
| 2026-05-04 07:04 | 28.44806 | 32.68714 | 35107 ft | 553 kts | 144° |
| 2026-05-04 07:04 | 28.39311 | 32.74774 | 35107 ft | 552 kts | 144° |
| 2026-05-04 07:05 | 28.33794 | 32.80848 | 35107 ft | 551 kts | 144° |
| 2026-05-04 07:05 | 28.28307 | 32.86881 | 35104 ft | 551 kts | 144° |
| 2026-05-04 07:06 | 28.20006 | 32.95990 | 35107 ft | 551 kts | 144° |
| 2026-05-04 07:07 | 28.14519 | 33.02000 | 35094 ft | 551 kts | 144° |
| 2026-05-04 07:09 | 27.92515 | 33.26011 | 35079 ft | 548 kts | 144° |
| 2026-05-04 07:09 | 27.87019 | 33.31986 | 35068 ft | 548 kts | 144° |
| 2026-05-04 07:10 | 27.81542 | 33.37932 | 35061 ft | 547 kts | 144° |
| 2026-05-04 07:12 | 27.60473 | 33.60720 | 35051 ft | 547 kts | 144° |
| 2026-05-04 07:12 | 27.54998 | 33.66621 | 35041 ft | 548 kts | 144° |
| 2026-05-04 07:13 | 27.49463 | 33.72579 | 35036 ft | 549 kts | 144° |
| 2026-05-04 07:13 | 27.43906 | 33.78551 | 35034 ft | 550 kts | 144° |
| 2026-05-04 07:14 | 27.30042 | 33.93414 | 35038 ft | 552 kts | 144° |
| 2026-05-04 07:15 | 27.24566 | 33.99270 | 35032 ft | 552 kts | 145° |
| 2026-05-04 07:15 | 27.18905 | 34.05316 | 35028 ft | 552 kts | 145° |
| 2026-05-04 07:16 | 27.13327 | 34.11265 | 35024 ft | 552 kts | 145° |
| 2026-05-04 07:16 | 27.07685 | 34.17273 | 35016 ft | 552 kts | 145° |
| 2026-05-04 07:17 | 27.02716 | 34.23775 | 35018 ft | 569 kts | 131° |
| 2026-05-04 07:17 | 26.98981 | 34.31636 | 35014 ft | 583 kts | 117° |
| 2026-05-04 07:18 | 26.96002 | 34.40298 | 35016 ft | 584 kts | 117° |
| 2026-05-04 07:18 | 26.93033 | 34.48783 | 35019 ft | 584 kts | 117° |
| 2026-05-04 07:19 | 26.90006 | 34.57206 | 35016 ft | 583 kts | 118° |
| 2026-05-04 07:19 | 26.86953 | 34.65613 | 35021 ft | 583 kts | 118° |
| 2026-05-04 07:20 | 26.83888 | 34.74052 | 35022 ft | 583 kts | 118° |
| 2026-05-04 07:20 | 26.80819 | 34.82500 | 35018 ft | 583 kts | 118° |
| 2026-05-04 07:22 | 26.68553 | 35.16100 | 35019 ft | 584 kts | 118° |
| 2026-05-04 07:23 | 26.65464 | 35.24515 | 35011 ft | 584 kts | 118° |
| 2026-05-04 07:23 | 26.62378 | 35.32904 | 35010 ft | 584 kts | 119° |
| 2026-05-04 07:24 | 26.59283 | 35.41304 | 35005 ft | 584 kts | 119° |
| 2026-05-04 07:24 | 26.56177 | 35.49708 | 35016 ft | 584 kts | 119° |
| 2026-05-04 07:26 | 26.43394 | 35.83026 | 34983 ft | 582 kts | 120° |
| 2026-05-04 07:27 | 26.40203 | 35.91324 | 34974 ft | 582 kts | 120° |
| 2026-05-04 07:27 | 26.37000 | 35.99630 | 34968 ft | 581 kts | 120° |
| 2026-05-04 07:28 | 26.33799 | 36.07908 | 34962 ft | 581 kts | 120° |
| 2026-05-04 07:28 | 26.30615 | 36.16129 | 34956 ft | 581 kts | 120° |
| 2026-05-04 07:29 | 26.27397 | 36.24421 | 34961 ft | 580 kts | 120° |
| 2026-05-04 07:29 | 26.24186 | 36.32679 | 34953 ft | 579 kts | 120° |
| 2026-05-04 07:30 | 26.20982 | 36.40903 | 34957 ft | 579 kts | 120° |
| 2026-05-04 07:30 | 26.17758 | 36.49115 | 34963 ft | 578 kts | 122° |
| 2026-05-04 07:31 | 26.14055 | 36.56985 | 34974 ft | 571 kts | 127° |
| 2026-05-04 07:33 | 25.98656 | 36.87842 | 34938 ft | 570 kts | 126° |
| 2026-05-04 07:33 | 25.94826 | 36.95584 | 34942 ft | 570 kts | 126° |
| 2026-05-04 07:34 | 25.91008 | 37.03280 | 34952 ft | 569 kts | 126° |
| 2026-05-04 07:34 | 25.87190 | 37.10964 | 34950 ft | 568 kts | 126° |
| 2026-05-04 07:35 | 25.83387 | 37.18604 | 34954 ft | 567 kts | 126° |
| 2026-05-04 07:35 | 25.80196 | 37.25007 | 34956 ft | 566 kts | 126° |
| 2026-05-04 07:36 | 25.76373 | 37.32680 | 34958 ft | 566 kts | 126° |
| 2026-05-04 07:38 | 25.61116 | 37.63216 | 34980 ft | 565 kts | 126° |
| 2026-05-04 07:38 | 25.57300 | 37.70827 | 34968 ft | 566 kts | 126° |
| 2026-05-04 07:39 | 25.53579 | 37.78240 | 34967 ft | 564 kts | 126° |
| 2026-05-04 07:39 | 25.49755 | 37.85838 | 34952 ft | 563 kts | 126° |
| 2026-05-04 07:40 | 25.45940 | 37.93403 | 34952 ft | 563 kts | 126° |
| 2026-05-04 07:40 | 25.42119 | 38.00967 | 34942 ft | 563 kts | 126° |
| 2026-05-04 07:41 | 25.38295 | 38.08528 | 34935 ft | 563 kts | 126° |
| 2026-05-04 07:41 | 25.34460 | 38.16098 | 34928 ft | 562 kts | 126° |
| 2026-05-04 07:42 | 25.30639 | 38.23629 | 34929 ft | 562 kts | 126° |
| 2026-05-04 07:42 | 25.27179 | 38.31362 | 34927 ft | 571 kts | 116° |
| 2026-05-04 07:43 | 25.24712 | 38.39755 | 34947 ft | 575 kts | 113° |
| 2026-05-04 07:43 | 25.22230 | 38.48220 | 34949 ft | 575 kts | 114° |
| 2026-05-04 07:44 | 25.19705 | 38.56586 | 34956 ft | 575 kts | 114° |
| 2026-05-04 07:44 | 25.17148 | 38.64971 | 34962 ft | 575 kts | 114° |
| 2026-05-04 07:45 | 25.14603 | 38.73307 | 34968 ft | 574 kts | 114° |
| 2026-05-04 07:45 | 25.12058 | 38.81643 | 34973 ft | 575 kts | 114° |
| 2026-05-04 07:46 | 25.09497 | 38.90020 | 34984 ft | 576 kts | 114° |
| 2026-05-04 07:46 | 25.06941 | 38.98370 | 34998 ft | 575 kts | 114° |
| 2026-05-04 07:47 | 25.04363 | 39.06759 | 34998 ft | 575 kts | 114° |
| 2026-05-04 07:49 | 24.93976 | 39.40378 | 35016 ft | 578 kts | 114° |
| 2026-05-04 07:49 | 24.91375 | 39.48748 | 35016 ft | 579 kts | 114° |
| 2026-05-04 07:50 | 24.88759 | 39.57154 | 35022 ft | 578 kts | 114° |
| 2026-05-04 07:50 | 24.86152 | 39.65518 | 35020 ft | 575 kts | 114° |
| 2026-05-04 07:51 | 24.83554 | 39.73821 | 35030 ft | 574 kts | 114° |
| 2026-05-04 07:51 | 24.80949 | 39.82133 | 35029 ft | 574 kts | 114° |
| 2026-05-04 07:52 | 24.78339 | 39.90439 | 35028 ft | 573 kts | 114° |
| 2026-05-04 07:52 | 24.75746 | 39.98681 | 35020 ft | 572 kts | 114° |
| 2026-05-04 07:54 | 24.65291 | 40.31718 | 35023 ft | 571 kts | 114° |
| 2026-05-04 07:55 | 24.62662 | 40.39981 | 35018 ft | 572 kts | 114° |
| 2026-05-04 07:55 | 24.60030 | 40.48235 | 35015 ft | 571 kts | 114° |
| 2026-05-04 07:56 | 24.57397 | 40.56474 | 35015 ft | 571 kts | 114° |
| 2026-05-04 07:56 | 24.54767 | 40.64693 | 35017 ft | 570 kts | 114° |
| 2026-05-04 07:57 | 24.52139 | 40.72884 | 35022 ft | 570 kts | 114° |
| 2026-05-04 07:57 | 24.49493 | 40.81111 | 35026 ft | 569 kts | 114° |
| 2026-05-04 07:58 | 24.47295 | 40.87934 | 35029 ft | 569 kts | 114° |
| 2026-05-04 07:58 | 24.44657 | 40.96111 | 35036 ft | 568 kts | 114° |
| 2026-05-04 07:59 | 24.42065 | 41.04288 | 35033 ft | 569 kts | 111° |
| 2026-05-04 07:59 | 24.40407 | 41.12832 | 35096 ft | 578 kts | 99° |
| 2026-05-04 08:00 | 24.40005 | 41.17246 | 35303 ft | 576 kts | 99° |
| 2026-05-04 08:00 | 24.39604 | 41.21600 | 35576 ft | 574 kts | 99° |
| 2026-05-04 08:00 | 24.39181 | 41.25939 | 35840 ft | 571 kts | 100° |
| 2026-05-04 08:02 | 24.36022 | 41.55532 | 37024 ft | 544 kts | 101° |
| 2026-05-04 08:02 | 24.35134 | 41.63742 | 37037 ft | 542 kts | 101° |
| 2026-05-04 08:03 | 24.34246 | 41.71907 | 37050 ft | 544 kts | 101° |
| 2026-05-04 08:03 | 24.33339 | 41.80161 | 37038 ft | 544 kts | 102° |
| 2026-05-04 08:04 | 24.31701 | 41.88210 | 37037 ft | 537 kts | 111° |
| 2026-05-04 08:04 | 24.29556 | 41.96026 | 37033 ft | 537 kts | 111° |
| 2026-05-04 08:05 | 24.27446 | 42.03860 | 37042 ft | 537 kts | 111° |
| 2026-05-04 08:05 | 24.25352 | 42.11772 | 37034 ft | 538 kts | 111° |
| 2026-05-04 08:06 | 24.23270 | 42.19663 | 37040 ft | 538 kts | 111° |
| 2026-05-04 08:06 | 24.21198 | 42.27484 | 37037 ft | 538 kts | 111° |
| 2026-05-04 08:08 | 24.12786 | 42.59016 | 37039 ft | 538 kts | 111° |
| 2026-05-04 08:11 | 24.03267 | 42.94367 | 37038 ft | 537 kts | 111° |
| 2026-05-04 08:11 | 24.00083 | 43.06136 | 37041 ft | 537 kts | 111° |
| 2026-05-04 08:12 | 23.97967 | 43.13936 | 37037 ft | 537 kts | 111° |
| 2026-05-04 08:12 | 23.95846 | 43.21743 | 37039 ft | 536 kts | 111° |
| 2026-05-04 08:13 | 23.93702 | 43.29609 | 37039 ft | 536 kts | 111° |
| 2026-05-04 08:13 | 23.91584 | 43.37368 | 37034 ft | 536 kts | 111° |
| 2026-05-04 08:14 | 23.89448 | 43.45174 | 37038 ft | 536 kts | 111° |
| 2026-05-04 08:16 | 23.80860 | 43.76393 | 37015 ft | 535 kts | 111° |
| 2026-05-04 08:16 | 23.78718 | 43.84140 | 37008 ft | 535 kts | 111° |
| 2026-05-04 08:17 | 23.77056 | 43.92095 | 36996 ft | 541 kts | 100° |
| 2026-05-04 08:17 | 23.76482 | 44.00316 | 37007 ft | 543 kts | 97° |
| 2026-05-04 08:19 | 23.74076 | 44.33194 | 36998 ft | 542 kts | 98° |
| 2026-05-04 08:20 | 23.73446 | 44.41391 | 37000 ft | 542 kts | 98° |
| 2026-05-04 08:20 | 23.72812 | 44.49612 | 36999 ft | 542 kts | 98° |
| 2026-05-04 08:21 | 23.72177 | 44.57796 | 37004 ft | 542 kts | 98° |
| 2026-05-04 08:21 | 23.71538 | 44.65957 | 36998 ft | 542 kts | 98° |
| 2026-05-04 08:22 | 23.70888 | 44.74204 | 36996 ft | 543 kts | 98° |
| 2026-05-04 08:24 | 23.68253 | 45.07020 | 36986 ft | 543 kts | 98° |
| 2026-05-04 08:24 | 23.67584 | 45.15212 | 36976 ft | 543 kts | 98° |
| 2026-05-04 08:25 | 23.66909 | 45.23421 | 36977 ft | 543 kts | 98° |
| 2026-05-04 08:25 | 23.66226 | 45.31692 | 36980 ft | 544 kts | 98° |
| 2026-05-04 08:27 | 23.63480 | 45.64485 | 36961 ft | 543 kts | 98° |
| 2026-05-04 08:28 | 23.62781 | 45.72695 | 36973 ft | 544 kts | 98° |
| 2026-05-04 08:28 | 23.62080 | 45.80917 | 36951 ft | 544 kts | 98° |
| 2026-05-04 08:29 | 23.61376 | 45.89114 | 36961 ft | 544 kts | 98° |
| 2026-05-04 08:31 | 23.58517 | 46.21945 | 36967 ft | 544 kts | 98° |
| 2026-05-04 08:33 | 23.55581 | 46.54819 | 36972 ft | 545 kts | 98° |
| 2026-05-04 08:35 | 23.52659 | 46.86316 | 36949 ft | 544 kts | 98° |
| 2026-05-04 08:35 | 23.51890 | 46.94516 | 36944 ft | 544 kts | 98° |
| 2026-05-04 08:37 | 23.49163 | 47.23191 | 36926 ft | 544 kts | 98° |
| 2026-05-04 08:38 | 23.48371 | 47.31410 | 36925 ft | 544 kts | 98° |
| 2026-05-04 08:38 | 23.47579 | 47.39602 | 36921 ft | 543 kts | 98° |
| 2026-05-04 08:40 | 23.44386 | 47.72328 | 36904 ft | 544 kts | 98° |
| 2026-05-04 08:41 | 23.43576 | 47.80571 | 36900 ft | 545 kts | 98° |
| 2026-05-04 08:41 | 23.42769 | 47.88723 | 36886 ft | 545 kts | 98° |
| 2026-05-04 08:42 | 23.41948 | 47.96975 | 36891 ft | 544 kts | 98° |
| 2026-05-04 08:42 | 23.41131 | 48.05137 | 36882 ft | 545 kts | 98° |
| 2026-05-04 08:43 | 23.40306 | 48.13342 | 36880 ft | 545 kts | 98° |
| 2026-05-04 08:43 | 23.39476 | 48.21565 | 36871 ft | 546 kts | 98° |
| 2026-05-04 08:44 | 23.38520 | 48.29731 | 36861 ft | 545 kts | 104° |
| 2026-05-04 08:46 | 23.24166 | 48.58024 | 36862 ft | 535 kts | 126° |
| 2026-05-04 08:46 | 23.20155 | 48.64859 | 36859 ft | 535 kts | 126° |
| 2026-05-04 08:47 | 23.16163 | 48.71661 | 36858 ft | 535 kts | 126° |
| 2026-05-04 08:47 | 23.12148 | 48.78486 | 36856 ft | 535 kts | 126° |
| 2026-05-04 08:48 | 23.08142 | 48.85282 | 36858 ft | 535 kts | 126° |
| 2026-05-04 08:48 | 23.04125 | 48.92086 | 36854 ft | 535 kts | 126° |
| 2026-05-04 08:49 | 23.00095 | 48.98903 | 36854 ft | 535 kts | 126° |
| 2026-05-04 08:50 | 22.86020 | 49.22646 | 36849 ft | 534 kts | 126° |
| 2026-05-04 08:51 | 22.82014 | 49.29384 | 36849 ft | 534 kts | 126° |
| 2026-05-04 08:51 | 22.77994 | 49.36138 | 36843 ft | 534 kts | 126° |
| 2026-05-04 08:52 | 22.73969 | 49.42890 | 36842 ft | 533 kts | 125° |
| 2026-05-04 08:52 | 22.69945 | 49.49632 | 36842 ft | 533 kts | 125° |
| 2026-05-04 08:54 | 22.54216 | 49.76903 | 36843 ft | 535 kts | 115° |
| 2026-05-04 08:55 | 22.51834 | 49.84496 | 36838 ft | 538 kts | 104° |
| 2026-05-04 08:55 | 22.50246 | 49.92453 | 36833 ft | 538 kts | 103° |
| 2026-05-04 09:01 | 22.32956 | 50.74988 | 36830 ft | 535 kts | 104° |
| 2026-05-04 09:01 | 22.31272 | 50.82879 | 36827 ft | 535 kts | 104° |
| 2026-05-04 09:02 | 22.29608 | 50.90661 | 36830 ft | 536 kts | 104° |
| 2026-05-04 09:02 | 22.27924 | 50.98513 | 36824 ft | 536 kts | 104° |
| 2026-05-04 09:03 | 22.26242 | 51.06338 | 36819 ft | 536 kts | 104° |
| 2026-05-04 09:03 | 22.24544 | 51.14216 | 36818 ft | 536 kts | 104° |
| 2026-05-04 09:04 | 22.22860 | 51.22015 | 36812 ft | 536 kts | 104° |
| 2026-05-04 09:04 | 22.21159 | 51.29871 | 36832 ft | 536 kts | 104° |
| 2026-05-04 09:05 | 22.19452 | 51.37730 | 36818 ft | 536 kts | 104° |
| 2026-05-04 09:05 | 22.17754 | 51.45535 | 36811 ft | 536 kts | 104° |
| 2026-05-04 09:06 | 22.16041 | 51.53387 | 36826 ft | 535 kts | 104° |
| 2026-05-04 09:08 | 22.09471 | 51.83331 | 36818 ft | 535 kts | 104° |
| 2026-05-04 09:08 | 22.07749 | 51.91132 | 36810 ft | 535 kts | 104° |
| 2026-05-04 09:09 | 22.06019 | 51.98951 | 36805 ft | 535 kts | 104° |
| 2026-05-04 09:09 | 22.04287 | 52.06760 | 36820 ft | 535 kts | 104° |
| 2026-05-04 09:10 | 22.02560 | 52.14532 | 36815 ft | 536 kts | 104° |
| 2026-05-04 09:10 | 22.00819 | 52.22346 | 36798 ft | 535 kts | 104° |
| 2026-05-04 09:11 | 21.99076 | 52.30149 | 36814 ft | 535 kts | 104° |
| 2026-05-04 09:11 | 21.97337 | 52.37915 | 36802 ft | 535 kts | 104° |
| 2026-05-04 09:12 | 21.95588 | 52.45712 | 36793 ft | 535 kts | 104° |
| 2026-05-04 09:14 | 21.89519 | 52.77051 | 36811 ft | 535 kts | 92° |
| 2026-05-04 09:14 | 21.89156 | 52.85044 | 36790 ft | 535 kts | 93° |
| 2026-05-04 09:15 | 21.88746 | 52.93072 | 36804 ft | 536 kts | 93° |
| 2026-05-04 09:15 | 21.88298 | 53.01051 | 36802 ft | 536 kts | 94° |
| 2026-05-04 09:17 | 21.86201 | 53.37089 | 36790 ft | 535 kts | 94° |
| 2026-05-04 09:18 | 21.85727 | 53.45106 | 36799 ft | 535 kts | 94° |
| 2026-05-04 09:18 | 21.85251 | 53.53064 | 36793 ft | 536 kts | 94° |
| 2026-05-04 09:19 | 21.84770 | 53.61047 | 36781 ft | 535 kts | 94° |
| 2026-05-04 09:19 | 21.84282 | 53.69074 | 36796 ft | 536 kts | 94° |
| 2026-05-04 09:20 | 21.83790 | 53.77115 | 36792 ft | 536 kts | 94° |
| 2026-05-04 09:20 | 21.83298 | 53.85098 | 36780 ft | 535 kts | 94° |
| 2026-05-04 09:21 | 21.82802 | 53.93066 | 36786 ft | 535 kts | 94° |
| 2026-05-04 09:21 | 21.82298 | 54.01111 | 36786 ft | 535 kts | 94° |
| 2026-05-04 09:22 | 21.81797 | 54.09048 | 36774 ft | 535 kts | 94° |
| 2026-05-04 09:22 | 21.81284 | 54.17092 | 36773 ft | 536 kts | 94° |
| 2026-05-04 09:23 | 21.80777 | 54.25013 | 36785 ft | 535 kts | 94° |
| 2026-05-04 09:23 | 21.80258 | 54.33056 | 36769 ft | 535 kts | 94° |
| 2026-05-04 09:25 | 21.82511 | 54.60152 | 36766 ft | 527 kts | 50° |
| 2026-05-04 09:25 | 21.84894 | 54.63110 | 36796 ft | 525 kts | 45° |
| 2026-05-04 09:26 | 21.89866 | 54.68984 | 36787 ft | 527 kts | 45° |
| 2026-05-04 09:26 | 21.94727 | 54.74883 | 36763 ft | 526 kts | 46° |
| 2026-05-04 09:27 | 21.99513 | 54.80786 | 36790 ft | 526 kts | 46° |
| 2026-05-04 09:27 | 22.04309 | 54.86722 | 36789 ft | 525 kts | 46° |
| 2026-05-04 09:28 | 22.09114 | 54.92667 | 36772 ft | 526 kts | 46° |
| 2026-05-04 09:28 | 22.13934 | 54.98632 | 36762 ft | 526 kts | 46° |
| 2026-05-04 09:29 | 22.18725 | 55.04568 | 36766 ft | 526 kts | 46° |
| 2026-05-04 09:29 | 22.23541 | 55.10542 | 36781 ft | 526 kts | 46° |
| 2026-05-04 09:30 | 22.28348 | 55.16513 | 36782 ft | 526 kts | 46° |
| 2026-05-04 09:30 | 22.33119 | 55.22445 | 36789 ft | 526 kts | 46° |
| 2026-05-04 09:31 | 22.37918 | 55.28419 | 36787 ft | 526 kts | 46° |
| 2026-05-04 09:31 | 22.42664 | 55.34434 | 36783 ft | 527 kts | 50° |
| 2026-05-04 09:32 | 22.46558 | 55.41150 | 36789 ft | 531 kts | 61° |
| 2026-05-04 09:34 | 22.57726 | 55.70946 | 36793 ft | 534 kts | 66° |
| 2026-05-04 09:34 | 22.60510 | 55.78394 | 36795 ft | 534 kts | 66° |
| 2026-05-04 09:35 | 22.63297 | 55.85875 | 36798 ft | 534 kts | 66° |
| 2026-05-04 09:35 | 22.66064 | 55.93318 | 36804 ft | 534 kts | 66° |
| 2026-05-04 09:37 | 22.77130 | 56.23204 | 36811 ft | 535 kts | 66° |
| 2026-05-04 09:38 | 22.79894 | 56.30703 | 36821 ft | 536 kts | 66° |
| 2026-05-04 09:38 | 22.82591 | 56.38231 | 36825 ft | 537 kts | 70° |
| 2026-05-04 09:39 | 22.84351 | 56.46156 | 36835 ft | 538 kts | 77° |
| 2026-05-04 09:39 | 22.85774 | 56.54093 | 36832 ft | 538 kts | 77° |
| 2026-05-04 09:40 | 22.87241 | 56.62018 | 36839 ft | 538 kts | 77° |
| 2026-05-04 09:40 | 22.88499 | 56.68679 | 36851 ft | 538 kts | 77° |
| 2026-05-04 09:42 | 22.94466 | 57.00428 | 36863 ft | 537 kts | 77° |
| 2026-05-04 09:43 | 22.95953 | 57.08411 | 36869 ft | 537 kts | 77° |
| 2026-05-04 09:43 | 22.97429 | 57.16358 | 36874 ft | 537 kts | 77° |
| 2026-05-04 09:44 | 22.98902 | 57.24310 | 36865 ft | 537 kts | 77° |
| 2026-05-04 09:46 | 23.00920 | 57.56695 | 36853 ft | 539 kts | 87° |
| 2026-05-04 09:46 | 23.01181 | 57.64843 | 36840 ft | 539 kts | 87° |
| 2026-05-04 09:47 | 23.01433 | 57.72992 | 36822 ft | 539 kts | 87° |
| 2026-05-04 09:49 | 23.01824 | 58.05560 | 36801 ft | 541 kts | 89° |
| 2026-05-04 09:51 | 23.01806 | 58.34182 | 36785 ft | 541 kts | 89° |
| 2026-05-04 09:51 | 23.01858 | 58.42290 | 36780 ft | 540 kts | 87° |
| 2026-05-04 09:52 | 23.02171 | 58.50443 | 36777 ft | 540 kts | 86° |
| 2026-05-04 09:52 | 23.02507 | 58.58602 | 36773 ft | 540 kts | 86° |
| 2026-05-04 09:53 | 23.02789 | 58.66762 | 36775 ft | 541 kts | 87° |
| 2026-05-04 09:53 | 23.03047 | 58.74889 | 36764 ft | 541 kts | 87° |
| 2026-05-04 09:54 | 23.03305 | 58.83078 | 36757 ft | 541 kts | 87° |
| 2026-05-04 09:54 | 23.03563 | 58.91257 | 36759 ft | 541 kts | 87° |
| 2026-05-04 09:55 | 23.03815 | 58.99344 | 36755 ft | 542 kts | 87° |
| 2026-05-04 09:55 | 23.04058 | 59.07597 | 36743 ft | 542 kts | 87° |
| 2026-05-04 09:56 | 23.04293 | 59.15725 | 36751 ft | 542 kts | 87° |
| 2026-05-04 09:56 | 23.04526 | 59.23900 | 36747 ft | 541 kts | 87° |
| 2026-05-04 09:57 | 23.04756 | 59.32080 | 36742 ft | 541 kts | 87° |
| 2026-05-04 09:57 | 23.04971 | 59.40234 | 36734 ft | 542 kts | 88° |
| 2026-05-04 09:58 | 23.05103 | 59.48426 | 36733 ft | 542 kts | 88° |
| 2026-05-04 09:58 | 23.05215 | 59.56655 | 36730 ft | 542 kts | 88° |
| 2026-05-04 10:00 | 23.05584 | 59.89392 | 36719 ft | 543 kts | 92° |
| 2026-05-04 10:04 | 22.95533 | 60.45862 | 36723 ft | 545 kts | 101° |
| 2026-05-04 10:04 | 22.94036 | 60.53976 | 36728 ft | 545 kts | 101° |
| 2026-05-04 10:05 | 22.92553 | 60.61997 | 36728 ft | 546 kts | 101° |
| 2026-05-04 10:05 | 22.91055 | 60.70073 | 36724 ft | 546 kts | 101° |
| 2026-05-04 10:06 | 22.89550 | 60.78161 | 36729 ft | 545 kts | 101° |
| 2026-05-04 10:06 | 22.88048 | 60.86211 | 36726 ft | 545 kts | 101° |
| 2026-05-04 10:08 | 22.82731 | 61.14523 | 36728 ft | 547 kts | 101° |
| 2026-05-04 10:08 | 22.81209 | 61.22574 | 36724 ft | 548 kts | 101° |
| 2026-05-04 10:09 | 22.79681 | 61.30635 | 36721 ft | 548 kts | 101° |
| 2026-05-04 10:09 | 22.78139 | 61.38748 | 36728 ft | 548 kts | 101° |
| 2026-05-04 10:10 | 22.76597 | 61.46834 | 36723 ft | 548 kts | 101° |
| 2026-05-04 10:10 | 22.75053 | 61.54909 | 36734 ft | 548 kts | 101° |
| 2026-05-04 10:11 | 22.73492 | 61.63045 | 36731 ft | 549 kts | 101° |
| 2026-05-04 10:11 | 22.71934 | 61.71148 | 36731 ft | 549 kts | 101° |
| 2026-05-04 10:12 | 22.70371 | 61.79250 | 36728 ft | 549 kts | 101° |
| 2026-05-04 10:12 | 22.68813 | 61.87305 | 36727 ft | 549 kts | 101° |
| 2026-05-04 10:13 | 22.67245 | 61.95392 | 36730 ft | 548 kts | 101° |
| 2026-05-04 10:13 | 22.65676 | 62.03459 | 36733 ft | 548 kts | 101° |
| 2026-05-04 10:14 | 22.64100 | 62.11538 | 36734 ft | 549 kts | 101° |
| 2026-05-04 10:16 | 22.58012 | 62.42542 | 36737 ft | 549 kts | 101° |
| 2026-05-04 10:16 | 22.56419 | 62.50596 | 36743 ft | 550 kts | 101° |
| 2026-05-04 10:17 | 22.54815 | 62.58692 | 36738 ft | 550 kts | 101° |
| 2026-05-04 10:19 | 22.48339 | 62.91137 | 36741 ft | 550 kts | 101° |
| 2026-05-04 10:19 | 22.46722 | 62.99188 | 36739 ft | 551 kts | 101° |
| 2026-05-04 10:20 | 22.45086 | 63.07293 | 36739 ft | 551 kts | 102° |
| 2026-05-04 10:20 | 22.42766 | 63.15166 | 36739 ft | 552 kts | 113° |
| 2026-05-04 10:21 | 22.39393 | 63.22622 | 36741 ft | 552 kts | 117° |
| 2026-05-04 10:21 | 22.35987 | 63.30060 | 36739 ft | 552 kts | 116° |
| 2026-05-04 10:22 | 22.30947 | 63.41260 | 36744 ft | 552 kts | 116° |
| 2026-05-04 10:23 | 22.27601 | 63.48726 | 36737 ft | 551 kts | 116° |
| 2026-05-04 10:25 | 22.14223 | 63.78399 | 36741 ft | 551 kts | 116° |
| 2026-05-04 10:25 | 22.10836 | 63.85882 | 36739 ft | 551 kts | 116° |
| 2026-05-04 10:26 | 22.07469 | 63.93309 | 36738 ft | 551 kts | 116° |
| 2026-05-04 10:26 | 22.04106 | 64.00716 | 36738 ft | 551 kts | 116° |
| 2026-05-04 10:27 | 22.00747 | 64.08106 | 36744 ft | 551 kts | 116° |
| 2026-05-04 10:27 | 21.97351 | 64.15564 | 36745 ft | 551 kts | 116° |
| 2026-05-04 10:28 | 21.93985 | 64.22947 | 36740 ft | 551 kts | 116° |
| 2026-05-04 10:28 | 21.90615 | 64.30327 | 36742 ft | 550 kts | 116° |
| 2026-05-04 10:29 | 21.87228 | 64.37733 | 36743 ft | 550 kts | 116° |
| 2026-05-04 10:29 | 21.83845 | 64.45121 | 36741 ft | 550 kts | 116° |
| 2026-05-04 10:30 | 21.80454 | 64.52514 | 36741 ft | 549 kts | 116° |
| 2026-05-04 10:30 | 21.77059 | 64.59906 | 36744 ft | 549 kts | 116° |
| 2026-05-04 10:31 | 21.73679 | 64.67255 | 36744 ft | 550 kts | 116° |
| 2026-05-04 10:32 | 21.61777 | 64.93050 | 36744 ft | 550 kts | 116° |
| 2026-05-04 10:33 | 21.58374 | 65.00400 | 36760 ft | 549 kts | 116° |
| 2026-05-04 10:33 | 21.54983 | 65.07716 | 36738 ft | 544 kts | 116° |
| 2026-05-04 10:34 | 21.51632 | 65.14935 | 36741 ft | 543 kts | 116° |
| 2026-05-04 10:34 | 21.48233 | 65.22247 | 36754 ft | 544 kts | 117° |
| 2026-05-04 10:35 | 21.44867 | 65.29477 | 36741 ft | 545 kts | 117° |
| 2026-05-04 10:35 | 21.41468 | 65.36770 | 36746 ft | 545 kts | 117° |
| 2026-05-04 10:36 | 21.38074 | 65.44040 | 36740 ft | 545 kts | 117° |
| 2026-05-04 10:36 | 21.34665 | 65.51333 | 36746 ft | 544 kts | 117° |
| 2026-05-04 10:37 | 21.31282 | 65.58561 | 36749 ft | 544 kts | 117° |
| 2026-05-04 10:37 | 21.27892 | 65.65793 | 36737 ft | 544 kts | 117° |
| 2026-05-04 10:39 | 21.15967 | 65.91159 | 36742 ft | 544 kts | 117° |
| 2026-05-04 10:40 | 21.12536 | 65.98438 | 36740 ft | 544 kts | 117° |
| 2026-05-04 10:40 | 21.09183 | 66.05652 | 36745 ft | 543 kts | 116° |
| 2026-05-04 10:41 | 21.05885 | 66.12951 | 36746 ft | 543 kts | 116° |
| 2026-05-04 10:41 | 21.02598 | 66.20230 | 36743 ft | 543 kts | 116° |
| 2026-05-04 10:42 | 20.99285 | 66.27522 | 36741 ft | 543 kts | 116° |
| 2026-05-04 10:42 | 20.95962 | 66.34806 | 36747 ft | 543 kts | 116° |
| 2026-05-04 10:43 | 20.92645 | 66.42064 | 36742 ft | 543 kts | 116° |
| 2026-05-04 10:45 | 20.79369 | 66.71032 | 36747 ft | 542 kts | 116° |
| 2026-05-04 10:45 | 20.76036 | 66.78278 | 36748 ft | 542 kts | 116° |
| 2026-05-04 10:46 | 20.72712 | 66.85497 | 36753 ft | 542 kts | 116° |
| 2026-05-04 10:46 | 20.69367 | 66.92752 | 36750 ft | 542 kts | 116° |
| 2026-05-04 10:47 | 20.66039 | 66.99960 | 36746 ft | 542 kts | 116° |
| 2026-05-04 10:47 | 20.62705 | 67.07172 | 36756 ft | 542 kts | 116° |
| 2026-05-04 10:49 | 20.49300 | 67.36070 | 36753 ft | 543 kts | 116° |
| 2026-05-04 10:50 | 20.45944 | 67.43280 | 36751 ft | 542 kts | 116° |
| 2026-05-04 10:52 | 20.33068 | 67.70858 | 36754 ft | 542 kts | 116° |
| 2026-05-04 10:52 | 20.29693 | 67.78064 | 36756 ft | 542 kts | 116° |
| 2026-05-04 10:54 | 20.16194 | 68.06790 | 36758 ft | 542 kts | 116° |
| 2026-05-04 10:56 | 20.02640 | 68.35485 | 36750 ft | 543 kts | 116° |
| 2026-05-04 10:57 | 19.99259 | 68.42619 | 36754 ft | 542 kts | 117° |
| 2026-05-04 10:57 | 19.95843 | 68.49818 | 36753 ft | 542 kts | 117° |
| 2026-05-04 10:58 | 19.92441 | 68.56981 | 36753 ft | 542 kts | 117° |
| 2026-05-04 10:58 | 19.89059 | 68.64089 | 36754 ft | 542 kts | 117° |
| 2026-05-04 10:59 | 19.85663 | 68.71219 | 36751 ft | 542 kts | 117° |
| 2026-05-04 10:59 | 19.82259 | 68.78358 | 36758 ft | 541 kts | 117° |
| 2026-05-04 11:00 | 19.78844 | 68.85509 | 36756 ft | 541 kts | 117° |
| 2026-05-04 11:02 | 19.65196 | 69.14005 | 36758 ft | 541 kts | 117° |
| 2026-05-04 11:05 | 19.39609 | 69.67340 | 36759 ft | 541 kts | 117° |
| 2026-05-04 11:06 | 19.36187 | 69.74460 | 36763 ft | 541 kts | 117° |
| 2026-05-04 11:06 | 19.32769 | 69.81566 | 36762 ft | 541 kts | 117° |
| 2026-05-04 11:10 | 19.09572 | 70.31568 | 36774 ft | 541 kts | 111° |
| 2026-05-04 11:12 | 18.98580 | 70.61180 | 36774 ft | 541 kts | 111° |
| 2026-05-04 11:12 | 18.95801 | 70.68547 | 36774 ft | 541 kts | 111° |
| 2026-05-04 11:13 | 18.93005 | 70.75955 | 36776 ft | 541 kts | 112° |
| 2026-05-04 11:13 | 18.90202 | 70.83375 | 36775 ft | 541 kts | 112° |
| 2026-05-04 11:14 | 18.87429 | 70.90705 | 36782 ft | 540 kts | 112° |
| 2026-05-04 11:16 | 18.76216 | 71.20237 | 36778 ft | 539 kts | 112° |
| 2026-05-04 11:16 | 18.73433 | 71.27542 | 36781 ft | 539 kts | 112° |
| 2026-05-04 11:17 | 18.70646 | 71.34849 | 36783 ft | 539 kts | 112° |
| 2026-05-04 11:19 | 18.60863 | 71.60416 | 35971 ft | 533 kts | 112° |
| 2026-05-04 11:19 | 18.59484 | 71.64012 | 35181 ft | 531 kts | 112° |
| 2026-05-04 11:19 | 18.58082 | 71.67664 | 34213 ft | 534 kts | 112° |
| 2026-05-04 11:19 | 18.56695 | 71.71273 | 33440 ft | 531 kts | 111° |
| 2026-05-04 11:20 | 18.55310 | 71.74875 | 32560 ft | 530 kts | 111° |
| 2026-05-04 11:20 | 18.54387 | 71.77274 | 31900 ft | 530 kts | 111° |
| 2026-05-04 11:20 | 18.52970 | 71.80956 | 30803 ft | 534 kts | 110° |
| 2026-05-04 11:20 | 18.51598 | 71.84521 | 29958 ft | 533 kts | 110° |
| 2026-05-04 11:22 | 18.44037 | 72.05932 | 28415 ft | 365 kts | 80° |
| 2026-05-04 11:22 | 18.44627 | 72.08581 | 28184 ft | 381 kts | 65° |
| 2026-05-04 11:23 | 18.45949 | 72.11137 | 27769 ft | 402 kts | 48° |
| 2026-05-04 11:23 | 18.47792 | 72.13336 | 27379 ft | 414 kts | 43° |
| 2026-05-04 11:24 | 18.59333 | 72.26080 | 24744 ft | 377 kts | 44° |
| 2026-05-04 11:25 | 18.61077 | 72.28046 | 24470 ft | 360 kts | 44° |
| 2026-05-04 11:25 | 18.62786 | 72.29973 | 24067 ft | 360 kts | 44° |
| 2026-05-04 11:25 | 18.64504 | 72.31909 | 23699 ft | 362 kts | 44° |
| 2026-05-04 11:26 | 18.67957 | 72.35807 | 22870 ft | 369 kts | 45° |
| 2026-05-04 11:27 | 18.79626 | 72.49015 | 20197 ft | 364 kts | 45° |
| 2026-05-04 11:28 | 18.79730 | 72.49133 | 20175 ft | 364 kts | 45° |
| 2026-05-04 11:28 | 18.81445 | 72.51076 | 19789 ft | 363 kts | 45° |
| 2026-05-04 11:28 | 18.82314 | 72.52062 | 19592 ft | 362 kts | 45° |
| 2026-05-04 11:28 | 18.84077 | 72.54061 | 19189 ft | 361 kts | 45° |
| 2026-05-04 11:29 | 18.85781 | 72.55993 | 18780 ft | 361 kts | 45° |
| 2026-05-04 11:29 | 18.87499 | 72.57942 | 18443 ft | 358 kts | 45° |
| 2026-05-04 11:29 | 18.89123 | 72.59816 | 18279 ft | 336 kts | 50° |
| 2026-05-04 11:29 | 18.90290 | 72.61903 | 17842 ft | 321 kts | 70° |
| 2026-05-04 11:31 | 18.91261 | 72.77500 | 13027 ft | 296 kts | 87° |
| 2026-05-04 11:33 | 18.91724 | 72.91943 | 10127 ft | 279 kts | 90° |
| 2026-05-04 11:33 | 18.91692 | 72.93976 | 10079 ft | 279 kts | 90° |
| 2026-05-04 11:33 | 18.91654 | 72.96001 | 9869 ft | 270 kts | 90° |
| 2026-05-04 11:34 | 18.91611 | 72.97968 | 9322 ft | 266 kts | 90° |
| 2026-05-04 11:34 | 18.91561 | 72.99912 | 8695 ft | 264 kts | 89° |
| 2026-05-04 11:34 | 18.91501 | 73.01870 | 8054 ft | 263 kts | 90° |
| 2026-05-04 11:34 | 18.91440 | 73.03780 | 7492 ft | 260 kts | 90° |
| 2026-05-04 11:35 | 18.91379 | 73.05688 | 6855 ft | 261 kts | 90° |
| 2026-05-04 11:35 | 18.91319 | 73.07613 | 6203 ft | 262 kts | 90° |
| 2026-05-04 11:35 | 18.91257 | 73.09544 | 5565 ft | 263 kts | 90° |
| 2026-05-04 11:35 | 18.91198 | 73.11477 | 4926 ft | 263 kts | 90° |
| 2026-05-04 11:36 | 18.91145 | 73.13425 | 4552 ft | 267 kts | 90° |
| 2026-05-04 11:36 | 18.91096 | 73.15389 | 4278 ft | 267 kts | 89° |
| 2026-05-04 11:36 | 18.91058 | 73.17352 | 4090 ft | 263 kts | 90° |
| 2026-05-04 11:36 | 18.91036 | 73.19252 | 4023 ft | 257 kts | 90° |
| 2026-05-04 11:37 | 18.91008 | 73.21139 | 4006 ft | 250 kts | 90° |
| 2026-05-04 11:37 | 18.90977 | 73.22952 | 4013 ft | 253 kts | 90° |
| 2026-05-04 11:37 | 18.90942 | 73.24854 | 4028 ft | 265 kts | 90° |
| 2026-05-04 11:37 | 18.90910 | 73.26872 | 4034 ft | 279 kts | 89° |
| 2026-05-04 11:38 | 18.91022 | 73.28890 | 4005 ft | 279 kts | 74° |
| 2026-05-04 11:38 | 18.91895 | 73.30706 | 4011 ft | 269 kts | 44° |
| 2026-05-04 11:38 | 18.93374 | 73.31790 | 4021 ft | 255 kts | 15° |
| 2026-05-04 11:38 | 18.95075 | 73.32085 | 4020 ft | 247 kts | 360° |
| 2026-05-04 11:39 | 18.96792 | 73.32026 | 4010 ft | 243 kts | 343° |
| 2026-05-04 11:39 | 18.98251 | 73.31224 | 4015 ft | 239 kts | 314° |
| 2026-05-04 11:40 | 19.03613 | 73.22103 | 3996 ft | 237 kts | 300° |
| 2026-05-04 11:41 | 19.04460 | 73.20606 | 3981 ft | 235 kts | 300° |
| 2026-05-04 11:41 | 19.05318 | 73.19089 | 3993 ft | 241 kts | 300° |
| 2026-05-04 11:41 | 19.06169 | 73.17582 | 3990 ft | 240 kts | 300° |
| 2026-05-04 11:41 | 19.06979 | 73.16122 | 3972 ft | 236 kts | 300° |
| 2026-05-04 11:42 | 19.07818 | 73.14627 | 3880 ft | 238 kts | 300° |
| 2026-05-04 11:42 | 19.08665 | 73.13107 | 3769 ft | 235 kts | 297° |
| 2026-05-04 11:42 | 19.09138 | 73.11472 | 3515 ft | 233 kts | 274° |
| 2026-05-04 11:42 | 19.09167 | 73.09786 | 3348 ft | 225 kts | 271° |
| 2026-05-04 11:43 | 19.09181 | 73.08143 | 3025 ft | 228 kts | 269° |
| 2026-05-04 11:43 | 19.09169 | 73.06456 | 3033 ft | 226 kts | 268° |
| 2026-05-04 11:43 | 19.09147 | 73.04859 | 2974 ft | 209 kts | 266° |
| 2026-05-04 11:43 | 19.09123 | 73.03394 | 2794 ft | 191 kts | 268° |
| 2026-05-04 11:44 | 19.09102 | 73.02069 | 2584 ft | 174 kts | 268° |
| 2026-05-04 11:44 | 19.09090 | 73.01265 | 2437 ft | 160 kts | 268° |
| 2026-05-04 11:44 | 19.09074 | 73.00163 | 2236 ft | 137 kts | 266° |
| 2026-05-04 11:44 | 19.09067 | 72.99696 | 2148 ft | 130 kts | 265° |
| 2026-05-04 11:45 | 19.09055 | 72.98897 | 2046 ft | 129 kts | 265° |
| 2026-05-04 11:45 | 19.09044 | 72.98343 | 1959 ft | 136 kts | 267° |
| 2026-05-04 11:45 | 19.09030 | 72.97293 | 1775 ft | 144 kts | 267° |
| 2026-05-04 11:45 | 19.09015 | 72.96248 | 1580 ft | 143 kts | 265° |
| 2026-05-04 11:46 | 19.08997 | 72.95193 | 1376 ft | 141 kts | 264° |
| 2026-05-04 11:46 | 19.08985 | 72.94197 | 1219 ft | 134 kts | 265° |
| 2026-05-04 11:46 | 19.08969 | 72.93216 | 1051 ft | 133 kts | 267° |
| 2026-05-04 11:46 | 19.08955 | 72.92228 | 877 ft | 137 kts | 264° |
| 2026-05-04 11:47 | 19.08939 | 72.91219 | 720 ft | 140 kts | 266° |
| 2026-05-04 11:47 | 19.08924 | 72.90199 | 554 ft | 140 kts | 268° |
| 2026-05-04 11:47 | 19.08919 | 72.89169 | 718 ft | 139 kts | 269° |
| 2026-05-04 11:47 | 19.08928 | 72.88135 | 1126 ft | 139 kts | 269° |
| 2026-05-04 11:48 | 19.08976 | 72.87121 | 1523 ft | 140 kts | 269° |
| 2026-05-04 11:48 | 19.09008 | 72.86066 | 1824 ft | 143 kts | 270° |
| 2026-05-04 11:48 | 19.09033 | 72.85030 | 2249 ft | 140 kts | 270° |
| 2026-05-04 11:48 | 19.09139 | 72.84005 | 2564 ft | 143 kts | 287° |
| 2026-05-04 11:49 | 19.09829 | 72.83233 | 2795 ft | 154 kts | 335° |
| 2026-05-04 11:49 | 19.10901 | 72.83194 | 3084 ft | 157 kts | 3° |
| 2026-05-04 11:49 | 19.12000 | 72.83314 | 3421 ft | 158 kts | 360° |
| 2026-05-04 11:49 | 19.13101 | 72.83410 | 3818 ft | 155 kts | 360° |
| 2026-05-04 11:50 | 19.14187 | 72.83505 | 3972 ft | 161 kts | 360° |
| 2026-05-04 11:50 | 19.15405 | 72.83600 | 3982 ft | 185 kts | 359° |
| 2026-05-04 11:50 | 19.16702 | 72.83704 | 3980 ft | 194 kts | 360° |
| 2026-05-04 11:50 | 19.18074 | 72.83813 | 3978 ft | 196 kts | 0° |
| 2026-05-04 11:51 | 19.19423 | 72.83916 | 3972 ft | 195 kts | 0° |
| 2026-05-04 11:51 | 19.20756 | 72.84160 | 3941 ft | 194 kts | 21° |
| 2026-05-04 11:51 | 19.21750 | 72.85143 | 3992 ft | 208 kts | 59° |
| 2026-05-04 11:51 | 19.22051 | 72.86679 | 3991 ft | 213 kts | 90° |
| 2026-05-04 11:52 | 19.22007 | 72.88229 | 3991 ft | 214 kts | 90° |
| 2026-05-04 11:52 | 19.21987 | 72.89819 | 3987 ft | 217 kts | 90° |
| 2026-05-04 11:52 | 19.21974 | 72.91410 | 3988 ft | 219 kts | 89° |
| 2026-05-04 11:52 | 19.21951 | 72.93085 | 3971 ft | 235 kts | 90° |
| 2026-05-04 11:53 | 19.21940 | 72.94836 | 3984 ft | 239 kts | 90° |
| 2026-05-04 11:53 | 19.21929 | 72.96604 | 3984 ft | 237 kts | 90° |
| 2026-05-04 11:53 | 19.21905 | 72.98332 | 3981 ft | 235 kts | 90° |
| 2026-05-04 11:53 | 19.21874 | 73.00044 | 3980 ft | 236 kts | 90° |
| 2026-05-04 11:55 | 19.21348 | 73.11362 | 3957 ft | 206 kts | 122° |
| 2026-05-04 11:55 | 19.20303 | 73.12375 | 3992 ft | 208 kts | 160° |
| 2026-05-04 11:56 | 19.18885 | 73.12689 | 4006 ft | 207 kts | 178° |
| 2026-05-04 11:56 | 19.17449 | 73.12800 | 3989 ft | 210 kts | 179° |
| 2026-05-04 11:56 | 19.15994 | 73.12897 | 3981 ft | 204 kts | 180° |
| 2026-05-04 11:56 | 19.14650 | 73.12992 | 3947 ft | 185 kts | 180° |
| 2026-05-04 11:57 | 19.13416 | 73.13092 | 3947 ft | 173 kts | 180° |
| 2026-05-04 11:57 | 19.12197 | 73.13198 | 3991 ft | 181 kts | 182° |
| 2026-05-04 11:57 | 19.10983 | 73.12946 | 3980 ft | 175 kts | 217° |
| 2026-05-04 11:57 | 19.10135 | 73.12054 | 3994 ft | 171 kts | 236° |
| 2026-05-04 11:58 | 19.09490 | 73.11001 | 3952 ft | 169 kts | 258° |
| 2026-05-04 11:58 | 19.09404 | 73.09772 | 3907 ft | 171 kts | 268° |
| 2026-05-04 11:58 | 19.09242 | 73.08502 | 3689 ft | 178 kts | 264° |
| 2026-05-04 11:58 | 19.09177 | 73.07226 | 3464 ft | 168 kts | 269° |
| 2026-05-04 11:59 | 19.09158 | 73.06023 | 3257 ft | 160 kts | 266° |
| 2026-05-04 11:59 | 19.09142 | 73.04857 | 3044 ft | 156 kts | 264° |
| 2026-05-04 11:59 | 19.09123 | 73.03722 | 2863 ft | 162 kts | 268° |
| 2026-05-04 11:59 | 19.09107 | 73.02536 | 2656 ft | 165 kts | 268° |
| 2026-05-04 12:00 | 19.09090 | 73.01322 | 2451 ft | 163 kts | 267° |
| 2026-05-04 12:00 | 19.09072 | 73.00132 | 2243 ft | 162 kts | 267° |
| 2026-05-04 12:00 | 19.09055 | 72.98938 | 2038 ft | 160 kts | 266° |
| 2026-05-04 12:00 | 19.09037 | 72.97803 | 1826 ft | 151 kts | 268° |
| 2026-05-04 12:01 | 19.09021 | 72.96700 | 1660 ft | 149 kts | 267° |
| 2026-05-04 12:01 | 19.09006 | 72.95622 | 1463 ft | 143 kts | 265° |
| 2026-05-04 12:02 | 19.08919 | 72.89630 | 450 ft | 139 kts | 268° |
| 2026-05-04 12:03 | 19.08895 | 72.88621 | 251 ft | 139 kts | 267° |
| 2026-05-04 12:03 | 19.08872 | 72.87605 | 55 ft | 135 kts | 267° |
| 2026-05-04 12:03 | 19.08858 | 72.86681 | 36 ft | 115 kts | 270° |
| 2026-05-04 12:03 | 19.08859 | 72.86077 | 34 ft | 50 kts | 269° |
| 2026-05-04 12:04 | 19.08858 | 72.85867 | 35 ft | 23 kts | 271° |
| 2026-05-04 12:04 | 19.08873 | 72.85704 | 35 ft | 23 kts | 282° |
| 2026-05-04 12:04 | 19.08922 | 72.85559 | 36 ft | 19 kts | 293° |
| 2026-05-04 12:04 | 19.08958 | 72.85504 | 37 ft | 9 kts | 333° |
| 2026-05-04 12:05 | 19.09011 | 72.85528 | 37 ft | 9 kts | 56° |
| 2026-05-04 12:05 | 19.09028 | 72.85609 | 37 ft | 16 kts | 89° |
| 2026-05-04 12:05 | 19.09029 | 72.85744 | 37 ft | 19 kts | 89° |
| 2026-05-04 12:05 | 19.09028 | 72.85884 | 37 ft | 19 kts | 90° |
| 2026-05-04 12:06 | 19.09030 | 72.86029 | 37 ft | 20 kts | 87° |
| 2026-05-04 12:06 | 19.09033 | 72.86177 | 36 ft | 20 kts | 87° |
| 2026-05-04 12:06 | 19.09038 | 72.86326 | 36 ft | 16 kts | 91° |
| 2026-05-04 12:06 | 19.09036 | 72.86384 | 36 ft | 0 kts | 90° |
| 2026-05-04 12:07 | 19.09036 | 72.86387 | 36 ft | 0 kts | 90° |
| 2026-05-04 12:08 | 19.09036 | 72.86400 | 36 ft | 6 kts | 90° |
| 2026-05-04 12:08 | 19.09037 | 72.86489 | 35 ft | 16 kts | 87° |
| 2026-05-04 12:08 | 19.09041 | 72.86612 | 36 ft | 17 kts | 89° |
| 2026-05-04 12:09 | 19.09045 | 72.86729 | 37 ft | 16 kts | 87° |
| 2026-05-04 12:09 | 19.09043 | 72.86845 | 38 ft | 16 kts | 91° |
| 2026-05-04 12:09 | 19.09043 | 72.86962 | 38 ft | 16 kts | 90° |
| 2026-05-04 12:09 | 19.09047 | 72.87082 | 38 ft | 17 kts | 88° |
| 2026-05-04 12:10 | 19.09051 | 72.87191 | 38 ft | 12 kts | 88° |
| 2026-05-04 12:10 | 19.09088 | 72.87258 | 38 ft | 11 kts | 15° |
| 2026-05-04 12:10 | 19.09167 | 72.87259 | 38 ft | 11 kts | 0° |
| 2026-05-04 12:10 | 19.09226 | 72.87237 | 38 ft | 9 kts | 336° |
| 2026-05-04 12:11 | 19.09250 | 72.87226 | 38 ft | 3 kts | 336° |
| 2026-05-04 12:11 | 19.09272 | 72.87216 | 38 ft | 4 kts | 336° |
| 2026-05-04 12:11 | 19.09301 | 72.87203 | 38 ft | 4 kts | 336° |
| 2026-05-04 12:11 | 19.09305 | 72.87201 | 38 ft | 1 kts | 336° |
| 2026-05-04 12:12 | 19.09311 | 72.87198 | 38 ft | 0 kts | 337° |
| 2026-05-04 12:12 | 19.09312 | 72.87198 | 38 ft | 0 kts | 338° |